<?xml version="1.0" encoding="UTF-8" ?>
<gpx version="1.1" xmlns:xsi="http://www.w3.org/2001/XMLSchema-instance"
    xmlns="http://www.topografix.com/GPX/1/1"
    xsi:schemaLocation="http://www.topografix.com/GPX/1/1 http://www.topografix.com/GPX/1/1/gpx.xsd"
    creator="Openrunner - https://www.openrunner.com" >
                <wpt lat="48.565688" lon="-0.496164">
                        <ele>0</ele>
                        <name><![CDATA[Ravitaillement]]></name>
                        <desc><![CDATA[]]></desc>
                    <sym>3</sym>
                </wpt>
            
                <wpt lat="48.571030" lon="-0.427810">
                        <ele>0</ele>
                        <name><![CDATA[Ravitaillement]]></name>
                        <desc><![CDATA[]]></desc>
                    <sym>3</sym>
                </wpt>
            	<trk>
	                   <name>BNT42.2026-24460365</name>
						<trkseg>
					<trkpt lat="48.552910" lon="-0.421310">
						<ele>211</ele>
						<time>2026-08-24T08:12:40Z</time>
					</trkpt>
					<trkpt lat="48.552940" lon="-0.421500">
						<ele>211</ele>
						<time>2026-08-24T08:12:46Z</time>
					</trkpt>
					<trkpt lat="48.553220" lon="-0.421590">
						<ele>214</ele>
						<time>2026-08-24T08:13:01Z</time>
					</trkpt>
					<trkpt lat="48.553320" lon="-0.421860">
						<ele>214</ele>
						<time>2026-08-24T08:13:11Z</time>
					</trkpt>
					<trkpt lat="48.553270" lon="-0.422050">
						<ele>213</ele>
						<time>2026-08-24T08:13:18Z</time>
					</trkpt>
					<trkpt lat="48.552940" lon="-0.422300">
						<ele>210</ele>
						<time>2026-08-24T08:13:36Z</time>
					</trkpt>
					<trkpt lat="48.552760" lon="-0.422700">
						<ele>208</ele>
						<time>2026-08-24T08:13:52Z</time>
					</trkpt>
					<trkpt lat="48.552880" lon="-0.423410">
						<ele>208</ele>
						<time>2026-08-24T08:14:17Z</time>
					</trkpt>
					<trkpt lat="48.552390" lon="-0.423550">
						<ele>204</ele>
						<time>2026-08-24T08:14:42Z</time>
					</trkpt>
					<trkpt lat="48.552170" lon="-0.423450">
						<ele>201</ele>
						<time>2026-08-24T08:14:53Z</time>
					</trkpt>
					<trkpt lat="48.552020" lon="-0.423280">
						<ele>200</ele>
						<time>2026-08-24T08:15:02Z</time>
					</trkpt>
					<trkpt lat="48.551960" lon="-0.423030">
						<ele>199</ele>
						<time>2026-08-24T08:15:11Z</time>
					</trkpt>
					<trkpt lat="48.551880" lon="-0.421820">
						<ele>197</ele>
						<time>2026-08-24T08:15:52Z</time>
					</trkpt>
					<trkpt lat="48.551740" lon="-0.421340">
						<ele>193</ele>
						<time>2026-08-24T08:16:09Z</time>
					</trkpt>
					<trkpt lat="48.552000" lon="-0.421300">
						<ele>197</ele>
						<time>2026-08-24T08:16:22Z</time>
					</trkpt>
					<trkpt lat="48.552080" lon="-0.420860">
						<ele>197</ele>
						<time>2026-08-24T08:16:37Z</time>
					</trkpt>
					<trkpt lat="48.552380" lon="-0.420570">
						<ele>202</ele>
						<time>2026-08-24T08:16:55Z</time>
					</trkpt>
					<trkpt lat="48.552540" lon="-0.420440">
						<ele>206</ele>
						<time>2026-08-24T08:17:04Z</time>
					</trkpt>
					<trkpt lat="48.552820" lon="-0.420460">
						<ele>210</ele>
						<time>2026-08-24T08:17:18Z</time>
					</trkpt>
					<trkpt lat="48.553190" lon="-0.419610">
						<ele>217</ele>
						<time>2026-08-24T08:17:52Z</time>
					</trkpt>
					<trkpt lat="48.553690" lon="-0.420230">
						<ele>222</ele>
						<time>2026-08-24T08:18:24Z</time>
					</trkpt>
					<trkpt lat="48.553840" lon="-0.420560">
						<ele>223</ele>
						<time>2026-08-24T08:18:37Z</time>
					</trkpt>
					<trkpt lat="48.554460" lon="-0.420230">
						<ele>226</ele>
						<time>2026-08-24T08:19:10Z</time>
					</trkpt>
					<trkpt lat="48.554520" lon="-0.420560">
						<ele>226</ele>
						<time>2026-08-24T08:19:22Z</time>
					</trkpt>
					<trkpt lat="48.554390" lon="-0.420980">
						<ele>225</ele>
						<time>2026-08-24T08:19:37Z</time>
					</trkpt>
					<trkpt lat="48.554450" lon="-0.421410">
						<ele>223</ele>
						<time>2026-08-24T08:19:51Z</time>
					</trkpt>
					<trkpt lat="48.554650" lon="-0.421520">
						<ele>224</ele>
						<time>2026-08-24T08:20:02Z</time>
					</trkpt>
					<trkpt lat="48.554840" lon="-0.421890">
						<ele>226</ele>
						<time>2026-08-24T08:20:18Z</time>
					</trkpt>
					<trkpt lat="48.554870" lon="-0.422200">
						<ele>226</ele>
						<time>2026-08-24T08:20:28Z</time>
					</trkpt>
					<trkpt lat="48.555030" lon="-0.422330">
						<ele>227</ele>
						<time>2026-08-24T08:20:37Z</time>
					</trkpt>
					<trkpt lat="48.555120" lon="-0.422270">
						<ele>227</ele>
						<time>2026-08-24T08:20:42Z</time>
					</trkpt>
					<trkpt lat="48.555370" lon="-0.422040">
						<ele>228</ele>
						<time>2026-08-24T08:20:57Z</time>
					</trkpt>
					<trkpt lat="48.555640" lon="-0.421640">
						<ele>228</ele>
						<time>2026-08-24T08:21:16Z</time>
					</trkpt>
					<trkpt lat="48.555720" lon="-0.421950">
						<ele>228</ele>
						<time>2026-08-24T08:21:27Z</time>
					</trkpt>
					<trkpt lat="48.555770" lon="-0.422450">
						<ele>229</ele>
						<time>2026-08-24T08:21:43Z</time>
					</trkpt>
					<trkpt lat="48.555810" lon="-0.423490">
						<ele>228</ele>
						<time>2026-08-24T08:22:18Z</time>
					</trkpt>
					<trkpt lat="48.555820" lon="-0.423510">
						<ele>228</ele>
						<time>2026-08-24T08:22:19Z</time>
					</trkpt>
					<trkpt lat="48.555910" lon="-0.424400">
						<ele>228</ele>
						<time>2026-08-24T08:22:49Z</time>
					</trkpt>
					<trkpt lat="48.555990" lon="-0.424780">
						<ele>228</ele>
						<time>2026-08-24T08:23:02Z</time>
					</trkpt>
					<trkpt lat="48.556050" lon="-0.425020">
						<ele>229</ele>
						<time>2026-08-24T08:23:10Z</time>
					</trkpt>
					<trkpt lat="48.556450" lon="-0.426900">
						<ele>231</ele>
						<time>2026-08-24T08:24:16Z</time>
					</trkpt>
					<trkpt lat="48.556790" lon="-0.428570">
						<ele>235</ele>
						<time>2026-08-24T08:25:14Z</time>
					</trkpt>
					<trkpt lat="48.556900" lon="-0.429170">
						<ele>235</ele>
						<time>2026-08-24T08:25:34Z</time>
					</trkpt>
					<trkpt lat="48.556920" lon="-0.429290">
						<ele>235</ele>
						<time>2026-08-24T08:25:38Z</time>
					</trkpt>
					<trkpt lat="48.556970" lon="-0.429720">
						<ele>236</ele>
						<time>2026-08-24T08:25:53Z</time>
					</trkpt>
					<trkpt lat="48.557500" lon="-0.432820">
						<ele>236</ele>
						<time>2026-08-24T08:27:39Z</time>
					</trkpt>
					<trkpt lat="48.557420" lon="-0.433910">
						<ele>237</ele>
						<time>2026-08-24T08:28:15Z</time>
					</trkpt>
					<trkpt lat="48.557370" lon="-0.434250">
						<ele>237</ele>
						<time>2026-08-24T08:28:27Z</time>
					</trkpt>
					<trkpt lat="48.557230" lon="-0.435060">
						<ele>237</ele>
						<time>2026-08-24T08:28:54Z</time>
					</trkpt>
					<trkpt lat="48.557150" lon="-0.435510">
						<ele>235</ele>
						<time>2026-08-24T08:29:10Z</time>
					</trkpt>
					<trkpt lat="48.557050" lon="-0.436180">
						<ele>234</ele>
						<time>2026-08-24T08:29:33Z</time>
					</trkpt>
					<trkpt lat="48.557200" lon="-0.436870">
						<ele>233</ele>
						<time>2026-08-24T08:29:57Z</time>
					</trkpt>
					<trkpt lat="48.557990" lon="-0.440000">
						<ele>229</ele>
						<time>2026-08-24T08:31:48Z</time>
					</trkpt>
					<trkpt lat="48.558250" lon="-0.440870">
						<ele>227</ele>
						<time>2026-08-24T08:32:19Z</time>
					</trkpt>
					<trkpt lat="48.558510" lon="-0.441150">
						<ele>230</ele>
						<time>2026-08-24T08:32:35Z</time>
					</trkpt>
					<trkpt lat="48.558790" lon="-0.441320">
						<ele>233</ele>
						<time>2026-08-24T08:32:50Z</time>
					</trkpt>
					<trkpt lat="48.559000" lon="-0.441510">
						<ele>234</ele>
						<time>2026-08-24T08:33:02Z</time>
					</trkpt>
					<trkpt lat="48.559270" lon="-0.441570">
						<ele>237</ele>
						<time>2026-08-24T08:33:16Z</time>
					</trkpt>
					<trkpt lat="48.559330" lon="-0.441770">
						<ele>237</ele>
						<time>2026-08-24T08:33:23Z</time>
					</trkpt>
					<trkpt lat="48.559420" lon="-0.442110">
						<ele>237</ele>
						<time>2026-08-24T08:33:36Z</time>
					</trkpt>
					<trkpt lat="48.559590" lon="-0.443020">
						<ele>238</ele>
						<time>2026-08-24T08:34:07Z</time>
					</trkpt>
					<trkpt lat="48.559640" lon="-0.443460">
						<ele>238</ele>
						<time>2026-08-24T08:34:22Z</time>
					</trkpt>
					<trkpt lat="48.559760" lon="-0.444050">
						<ele>240</ele>
						<time>2026-08-24T08:34:42Z</time>
					</trkpt>
					<trkpt lat="48.559880" lon="-0.444240">
						<ele>243</ele>
						<time>2026-08-24T08:34:51Z</time>
					</trkpt>
					<trkpt lat="48.560050" lon="-0.445480">
						<ele>242</ele>
						<time>2026-08-24T08:35:33Z</time>
					</trkpt>
					<trkpt lat="48.560100" lon="-0.445730">
						<ele>241</ele>
						<time>2026-08-24T08:35:41Z</time>
					</trkpt>
					<trkpt lat="48.560280" lon="-0.446750">
						<ele>238</ele>
						<time>2026-08-24T08:36:16Z</time>
					</trkpt>
					<trkpt lat="48.560250" lon="-0.446830">
						<ele>237</ele>
						<time>2026-08-24T08:36:19Z</time>
					</trkpt>
					<trkpt lat="48.559820" lon="-0.447200">
						<ele>231</ele>
						<time>2026-08-24T08:36:44Z</time>
					</trkpt>
					<trkpt lat="48.558310" lon="-0.448130">
						<ele>214</ele>
						<time>2026-08-24T08:38:06Z</time>
					</trkpt>
					<trkpt lat="48.557950" lon="-0.448590">
						<ele>208</ele>
						<time>2026-08-24T08:38:29Z</time>
					</trkpt>
					<trkpt lat="48.557670" lon="-0.448640">
						<ele>205</ele>
						<time>2026-08-24T08:38:43Z</time>
					</trkpt>
					<trkpt lat="48.556930" lon="-0.448850">
						<ele>199</ele>
						<time>2026-08-24T08:39:21Z</time>
					</trkpt>
					<trkpt lat="48.556840" lon="-0.448870">
						<ele>198</ele>
						<time>2026-08-24T08:39:26Z</time>
					</trkpt>
					<trkpt lat="48.556240" lon="-0.449070">
						<ele>193</ele>
						<time>2026-08-24T08:39:56Z</time>
					</trkpt>
					<trkpt lat="48.555700" lon="-0.449220">
						<ele>189</ele>
						<time>2026-08-24T08:40:24Z</time>
					</trkpt>
					<trkpt lat="48.555600" lon="-0.449250">
						<ele>188</ele>
						<time>2026-08-24T08:40:29Z</time>
					</trkpt>
					<trkpt lat="48.553820" lon="-0.449260">
						<ele>183</ele>
						<time>2026-08-24T08:41:58Z</time>
					</trkpt>
					<trkpt lat="48.553440" lon="-0.449340">
						<ele>182</ele>
						<time>2026-08-24T08:42:17Z</time>
					</trkpt>
					<trkpt lat="48.553230" lon="-0.449360">
						<ele>181</ele>
						<time>2026-08-24T08:42:28Z</time>
					</trkpt>
					<trkpt lat="48.553020" lon="-0.449330">
						<ele>180</ele>
						<time>2026-08-24T08:42:38Z</time>
					</trkpt>
					<trkpt lat="48.552820" lon="-0.449230">
						<ele>180</ele>
						<time>2026-08-24T08:42:49Z</time>
					</trkpt>
					<trkpt lat="48.552710" lon="-0.449140">
						<ele>180</ele>
						<time>2026-08-24T08:42:55Z</time>
					</trkpt>
					<trkpt lat="48.552150" lon="-0.448110">
						<ele>179</ele>
						<time>2026-08-24T08:43:39Z</time>
					</trkpt>
					<trkpt lat="48.551890" lon="-0.447740">
						<ele>177</ele>
						<time>2026-08-24T08:43:57Z</time>
					</trkpt>
					<trkpt lat="48.551840" lon="-0.447690">
						<ele>177</ele>
						<time>2026-08-24T08:44:00Z</time>
					</trkpt>
					<trkpt lat="48.551760" lon="-0.447530">
						<ele>176</ele>
						<time>2026-08-24T08:44:07Z</time>
					</trkpt>
					<trkpt lat="48.551690" lon="-0.447330">
						<ele>176</ele>
						<time>2026-08-24T08:44:14Z</time>
					</trkpt>
					<trkpt lat="48.551390" lon="-0.446970">
						<ele>175</ele>
						<time>2026-08-24T08:44:34Z</time>
					</trkpt>
					<trkpt lat="48.551270" lon="-0.446880">
						<ele>175</ele>
						<time>2026-08-24T08:44:40Z</time>
					</trkpt>
					<trkpt lat="48.551170" lon="-0.446880">
						<ele>175</ele>
						<time>2026-08-24T08:44:45Z</time>
					</trkpt>
					<trkpt lat="48.550420" lon="-0.447350">
						<ele>174</ele>
						<time>2026-08-24T08:45:26Z</time>
					</trkpt>
					<trkpt lat="48.549350" lon="-0.447770">
						<ele>176</ele>
						<time>2026-08-24T08:46:21Z</time>
					</trkpt>
					<trkpt lat="48.548610" lon="-0.447940">
						<ele>177</ele>
						<time>2026-08-24T08:46:59Z</time>
					</trkpt>
					<trkpt lat="48.548560" lon="-0.448020">
						<ele>176</ele>
						<time>2026-08-24T08:47:02Z</time>
					</trkpt>
					<trkpt lat="48.548420" lon="-0.448140">
						<ele>176</ele>
						<time>2026-08-24T08:47:10Z</time>
					</trkpt>
					<trkpt lat="48.548180" lon="-0.448280">
						<ele>176</ele>
						<time>2026-08-24T08:47:23Z</time>
					</trkpt>
					<trkpt lat="48.547950" lon="-0.448580">
						<ele>174</ele>
						<time>2026-08-24T08:47:38Z</time>
					</trkpt>
					<trkpt lat="48.547650" lon="-0.448850">
						<ele>173</ele>
						<time>2026-08-24T08:47:56Z</time>
					</trkpt>
					<trkpt lat="48.546720" lon="-0.449850">
						<ele>172</ele>
						<time>2026-08-24T08:48:53Z</time>
					</trkpt>
					<trkpt lat="48.546460" lon="-0.450190">
						<ele>172</ele>
						<time>2026-08-24T08:49:10Z</time>
					</trkpt>
					<trkpt lat="48.546230" lon="-0.450560">
						<ele>172</ele>
						<time>2026-08-24T08:49:27Z</time>
					</trkpt>
					<trkpt lat="48.546030" lon="-0.450950">
						<ele>172</ele>
						<time>2026-08-24T08:49:43Z</time>
					</trkpt>
					<trkpt lat="48.545840" lon="-0.451160">
						<ele>172</ele>
						<time>2026-08-24T08:49:55Z</time>
					</trkpt>
					<trkpt lat="48.545560" lon="-0.451370">
						<ele>173</ele>
						<time>2026-08-24T08:50:11Z</time>
					</trkpt>
					<trkpt lat="48.545340" lon="-0.451620">
						<ele>173</ele>
						<time>2026-08-24T08:50:25Z</time>
					</trkpt>
					<trkpt lat="48.545240" lon="-0.451950">
						<ele>173</ele>
						<time>2026-08-24T08:50:37Z</time>
					</trkpt>
					<trkpt lat="48.545180" lon="-0.452230">
						<ele>172</ele>
						<time>2026-08-24T08:50:46Z</time>
					</trkpt>
					<trkpt lat="48.545090" lon="-0.452390">
						<ele>172</ele>
						<time>2026-08-24T08:50:53Z</time>
					</trkpt>
					<trkpt lat="48.544890" lon="-0.452650">
						<ele>171</ele>
						<time>2026-08-24T08:51:07Z</time>
					</trkpt>
					<trkpt lat="48.544490" lon="-0.452920">
						<ele>169</ele>
						<time>2026-08-24T08:51:28Z</time>
					</trkpt>
					<trkpt lat="48.544210" lon="-0.453060">
						<ele>168</ele>
						<time>2026-08-24T08:51:43Z</time>
					</trkpt>
					<trkpt lat="48.544040" lon="-0.453060">
						<ele>169</ele>
						<time>2026-08-24T08:51:52Z</time>
					</trkpt>
					<trkpt lat="48.543810" lon="-0.452940">
						<ele>171</ele>
						<time>2026-08-24T08:52:04Z</time>
					</trkpt>
					<trkpt lat="48.543570" lon="-0.452870">
						<ele>172</ele>
						<time>2026-08-24T08:52:16Z</time>
					</trkpt>
					<trkpt lat="48.543340" lon="-0.452870">
						<ele>173</ele>
						<time>2026-08-24T08:52:28Z</time>
					</trkpt>
					<trkpt lat="48.543210" lon="-0.452790">
						<ele>175</ele>
						<time>2026-08-24T08:52:35Z</time>
					</trkpt>
					<trkpt lat="48.543060" lon="-0.453030">
						<ele>173</ele>
						<time>2026-08-24T08:52:46Z</time>
					</trkpt>
					<trkpt lat="48.542910" lon="-0.453190">
						<ele>173</ele>
						<time>2026-08-24T08:52:55Z</time>
					</trkpt>
					<trkpt lat="48.542670" lon="-0.453310">
						<ele>173</ele>
						<time>2026-08-24T08:53:07Z</time>
					</trkpt>
					<trkpt lat="48.542140" lon="-0.453490">
						<ele>171</ele>
						<time>2026-08-24T08:53:35Z</time>
					</trkpt>
					<trkpt lat="48.541190" lon="-0.453710">
						<ele>167</ele>
						<time>2026-08-24T08:54:23Z</time>
					</trkpt>
					<trkpt lat="48.540730" lon="-0.453890">
						<ele>165</ele>
						<time>2026-08-24T08:54:46Z</time>
					</trkpt>
					<trkpt lat="48.540210" lon="-0.454150">
						<ele>163</ele>
						<time>2026-08-24T08:55:14Z</time>
					</trkpt>
					<trkpt lat="48.539650" lon="-0.454510">
						<ele>164</ele>
						<time>2026-08-24T08:55:44Z</time>
					</trkpt>
					<trkpt lat="48.539530" lon="-0.455010">
						<ele>167</ele>
						<time>2026-08-24T08:56:02Z</time>
					</trkpt>
					<trkpt lat="48.539870" lon="-0.459060">
						<ele>187</ele>
						<time>2026-08-24T08:58:17Z</time>
					</trkpt>
					<trkpt lat="48.538880" lon="-0.459760">
						<ele>187</ele>
						<time>2026-08-24T08:59:12Z</time>
					</trkpt>
					<trkpt lat="48.538460" lon="-0.459990">
						<ele>186</ele>
						<time>2026-08-24T08:59:34Z</time>
					</trkpt>
					<trkpt lat="48.538330" lon="-0.460300">
						<ele>186</ele>
						<time>2026-08-24T08:59:46Z</time>
					</trkpt>
					<trkpt lat="48.538340" lon="-0.460380">
						<ele>186</ele>
						<time>2026-08-24T08:59:49Z</time>
					</trkpt>
					<trkpt lat="48.538460" lon="-0.460590">
						<ele>186</ele>
						<time>2026-08-24T08:59:58Z</time>
					</trkpt>
					<trkpt lat="48.538650" lon="-0.461100">
						<ele>186</ele>
						<time>2026-08-24T09:00:18Z</time>
					</trkpt>
					<trkpt lat="48.538850" lon="-0.461370">
						<ele>186</ele>
						<time>2026-08-24T09:00:31Z</time>
					</trkpt>
					<trkpt lat="48.539090" lon="-0.461620">
						<ele>187</ele>
						<time>2026-08-24T09:00:46Z</time>
					</trkpt>
					<trkpt lat="48.539300" lon="-0.461800">
						<ele>188</ele>
						<time>2026-08-24T09:00:58Z</time>
					</trkpt>
					<trkpt lat="48.539440" lon="-0.462010">
						<ele>187</ele>
						<time>2026-08-24T09:01:08Z</time>
					</trkpt>
					<trkpt lat="48.539710" lon="-0.462310">
						<ele>187</ele>
						<time>2026-08-24T09:01:24Z</time>
					</trkpt>
					<trkpt lat="48.540020" lon="-0.462780">
						<ele>187</ele>
						<time>2026-08-24T09:01:46Z</time>
					</trkpt>
					<trkpt lat="48.540180" lon="-0.463230">
						<ele>187</ele>
						<time>2026-08-24T09:02:03Z</time>
					</trkpt>
					<trkpt lat="48.540450" lon="-0.463930">
						<ele>187</ele>
						<time>2026-08-24T09:02:30Z</time>
					</trkpt>
					<trkpt lat="48.541070" lon="-0.465330">
						<ele>190</ele>
						<time>2026-08-24T09:03:26Z</time>
					</trkpt>
					<trkpt lat="48.541500" lon="-0.466220">
						<ele>191</ele>
						<time>2026-08-24T09:04:03Z</time>
					</trkpt>
					<trkpt lat="48.541870" lon="-0.465880">
						<ele>192</ele>
						<time>2026-08-24T09:04:24Z</time>
					</trkpt>
					<trkpt lat="48.542140" lon="-0.465530">
						<ele>193</ele>
						<time>2026-08-24T09:04:42Z</time>
					</trkpt>
					<trkpt lat="48.542330" lon="-0.466320">
						<ele>193</ele>
						<time>2026-08-24T09:05:10Z</time>
					</trkpt>
					<trkpt lat="48.542780" lon="-0.467300">
						<ele>192</ele>
						<time>2026-08-24T09:05:49Z</time>
					</trkpt>
					<trkpt lat="48.543050" lon="-0.467940">
						<ele>192</ele>
						<time>2026-08-24T09:06:15Z</time>
					</trkpt>
					<trkpt lat="48.543610" lon="-0.470960">
						<ele>188</ele>
						<time>2026-08-24T09:07:58Z</time>
					</trkpt>
					<trkpt lat="48.543770" lon="-0.471740">
						<ele>189</ele>
						<time>2026-08-24T09:08:25Z</time>
					</trkpt>
					<trkpt lat="48.543910" lon="-0.472290">
						<ele>191</ele>
						<time>2026-08-24T09:08:45Z</time>
					</trkpt>
					<trkpt lat="48.544100" lon="-0.473640">
						<ele>194</ele>
						<time>2026-08-24T09:09:31Z</time>
					</trkpt>
					<trkpt lat="48.544170" lon="-0.474120">
						<ele>194</ele>
						<time>2026-08-24T09:09:47Z</time>
					</trkpt>
					<trkpt lat="48.544340" lon="-0.475130">
						<ele>194</ele>
						<time>2026-08-24T09:10:22Z</time>
					</trkpt>
					<trkpt lat="48.544480" lon="-0.475220">
						<ele>195</ele>
						<time>2026-08-24T09:10:29Z</time>
					</trkpt>
					<trkpt lat="48.544550" lon="-0.475390">
						<ele>195</ele>
						<time>2026-08-24T09:10:36Z</time>
					</trkpt>
					<trkpt lat="48.544830" lon="-0.476210">
						<ele>195</ele>
						<time>2026-08-24T09:11:06Z</time>
					</trkpt>
					<trkpt lat="48.541180" lon="-0.478180">
						<ele>170</ele>
						<time>2026-08-24T09:14:20Z</time>
					</trkpt>
					<trkpt lat="48.540080" lon="-0.478930">
						<ele>163</ele>
						<time>2026-08-24T09:15:21Z</time>
					</trkpt>
					<trkpt lat="48.539280" lon="-0.479470">
						<ele>157</ele>
						<time>2026-08-24T09:16:05Z</time>
					</trkpt>
					<trkpt lat="48.538600" lon="-0.480050">
						<ele>154</ele>
						<time>2026-08-24T09:16:44Z</time>
					</trkpt>
					<trkpt lat="48.538420" lon="-0.480170">
						<ele>153</ele>
						<time>2026-08-24T09:16:53Z</time>
					</trkpt>
					<trkpt lat="48.538600" lon="-0.480420">
						<ele>153</ele>
						<time>2026-08-24T09:17:06Z</time>
					</trkpt>
					<trkpt lat="48.539700" lon="-0.481660">
						<ele>151</ele>
						<time>2026-08-24T09:18:14Z</time>
					</trkpt>
					<trkpt lat="48.539400" lon="-0.482380">
						<ele>149</ele>
						<time>2026-08-24T09:18:43Z</time>
					</trkpt>
					<trkpt lat="48.539360" lon="-0.482620">
						<ele>148</ele>
						<time>2026-08-24T09:18:51Z</time>
					</trkpt>
					<trkpt lat="48.539360" lon="-0.482980">
						<ele>148</ele>
						<time>2026-08-24T09:19:03Z</time>
					</trkpt>
					<trkpt lat="48.539310" lon="-0.483310">
						<ele>147</ele>
						<time>2026-08-24T09:19:14Z</time>
					</trkpt>
					<trkpt lat="48.538960" lon="-0.484800">
						<ele>143</ele>
						<time>2026-08-24T09:20:06Z</time>
					</trkpt>
					<trkpt lat="48.538910" lon="-0.484920">
						<ele>143</ele>
						<time>2026-08-24T09:20:11Z</time>
					</trkpt>
					<trkpt lat="48.538800" lon="-0.484960">
						<ele>143</ele>
						<time>2026-08-24T09:20:17Z</time>
					</trkpt>
					<trkpt lat="48.538990" lon="-0.485120">
						<ele>142</ele>
						<time>2026-08-24T09:20:28Z</time>
					</trkpt>
					<trkpt lat="48.539430" lon="-0.485320">
						<ele>143</ele>
						<time>2026-08-24T09:20:51Z</time>
					</trkpt>
					<trkpt lat="48.539890" lon="-0.485600">
						<ele>144</ele>
						<time>2026-08-24T09:21:15Z</time>
					</trkpt>
					<trkpt lat="48.540140" lon="-0.485670">
						<ele>145</ele>
						<time>2026-08-24T09:21:28Z</time>
					</trkpt>
					<trkpt lat="48.540590" lon="-0.486160">
						<ele>145</ele>
						<time>2026-08-24T09:21:56Z</time>
					</trkpt>
					<trkpt lat="48.541120" lon="-0.486970">
						<ele>146</ele>
						<time>2026-08-24T09:22:34Z</time>
					</trkpt>
					<trkpt lat="48.541460" lon="-0.487400">
						<ele>145</ele>
						<time>2026-08-24T09:22:56Z</time>
					</trkpt>
					<trkpt lat="48.541760" lon="-0.487730">
						<ele>145</ele>
						<time>2026-08-24T09:23:14Z</time>
					</trkpt>
					<trkpt lat="48.541970" lon="-0.487900">
						<ele>145</ele>
						<time>2026-08-24T09:23:26Z</time>
					</trkpt>
					<trkpt lat="48.542240" lon="-0.488000">
						<ele>146</ele>
						<time>2026-08-24T09:23:40Z</time>
					</trkpt>
					<trkpt lat="48.542380" lon="-0.488390">
						<ele>144</ele>
						<time>2026-08-24T09:23:55Z</time>
					</trkpt>
					<trkpt lat="48.543540" lon="-0.488120">
						<ele>149</ele>
						<time>2026-08-24T09:24:54Z</time>
					</trkpt>
					<trkpt lat="48.544820" lon="-0.487700">
						<ele>160</ele>
						<time>2026-08-24T09:25:59Z</time>
					</trkpt>
					<trkpt lat="48.545680" lon="-0.488020">
						<ele>166</ele>
						<time>2026-08-24T09:26:44Z</time>
					</trkpt>
					<trkpt lat="48.546070" lon="-0.488020">
						<ele>169</ele>
						<time>2026-08-24T09:27:03Z</time>
					</trkpt>
					<trkpt lat="48.547040" lon="-0.487560">
						<ele>175</ele>
						<time>2026-08-24T09:27:54Z</time>
					</trkpt>
					<trkpt lat="48.547290" lon="-0.487700">
						<ele>175</ele>
						<time>2026-08-24T09:28:07Z</time>
					</trkpt>
					<trkpt lat="48.547590" lon="-0.488300">
						<ele>173</ele>
						<time>2026-08-24T09:28:32Z</time>
					</trkpt>
					<trkpt lat="48.547810" lon="-0.488770">
						<ele>171</ele>
						<time>2026-08-24T09:28:51Z</time>
					</trkpt>
					<trkpt lat="48.547990" lon="-0.489300">
						<ele>170</ele>
						<time>2026-08-24T09:29:11Z</time>
					</trkpt>
					<trkpt lat="48.548330" lon="-0.489740">
						<ele>173</ele>
						<time>2026-08-24T09:29:33Z</time>
					</trkpt>
					<trkpt lat="48.548660" lon="-0.490040">
						<ele>174</ele>
						<time>2026-08-24T09:29:53Z</time>
					</trkpt>
					<trkpt lat="48.549220" lon="-0.490030">
						<ele>178</ele>
						<time>2026-08-24T09:30:21Z</time>
					</trkpt>
					<trkpt lat="48.549560" lon="-0.490100">
						<ele>181</ele>
						<time>2026-08-24T09:30:38Z</time>
					</trkpt>
					<trkpt lat="48.549920" lon="-0.490370">
						<ele>186</ele>
						<time>2026-08-24T09:30:58Z</time>
					</trkpt>
					<trkpt lat="48.549720" lon="-0.490610">
						<ele>184</ele>
						<time>2026-08-24T09:31:11Z</time>
					</trkpt>
					<trkpt lat="48.549660" lon="-0.490830">
						<ele>184</ele>
						<time>2026-08-24T09:31:19Z</time>
					</trkpt>
					<trkpt lat="48.550240" lon="-0.491160">
						<ele>187</ele>
						<time>2026-08-24T09:31:50Z</time>
					</trkpt>
					<trkpt lat="48.550620" lon="-0.491490">
						<ele>188</ele>
						<time>2026-08-24T09:32:12Z</time>
					</trkpt>
					<trkpt lat="48.550930" lon="-0.491900">
						<ele>187</ele>
						<time>2026-08-24T09:32:32Z</time>
					</trkpt>
					<trkpt lat="48.551440" lon="-0.492460">
						<ele>186</ele>
						<time>2026-08-24T09:33:04Z</time>
					</trkpt>
					<trkpt lat="48.551850" lon="-0.493000">
						<ele>186</ele>
						<time>2026-08-24T09:33:31Z</time>
					</trkpt>
					<trkpt lat="48.552200" lon="-0.493470">
						<ele>186</ele>
						<time>2026-08-24T09:33:54Z</time>
					</trkpt>
					<trkpt lat="48.552420" lon="-0.493450">
						<ele>188</ele>
						<time>2026-08-24T09:34:05Z</time>
					</trkpt>
					<trkpt lat="48.552750" lon="-0.493480">
						<ele>186</ele>
						<time>2026-08-24T09:34:22Z</time>
					</trkpt>
					<trkpt lat="48.552880" lon="-0.493350">
						<ele>186</ele>
						<time>2026-08-24T09:34:30Z</time>
					</trkpt>
					<trkpt lat="48.553160" lon="-0.492880">
						<ele>185</ele>
						<time>2026-08-24T09:34:51Z</time>
					</trkpt>
					<trkpt lat="48.553770" lon="-0.491910">
						<ele>185</ele>
						<time>2026-08-24T09:35:35Z</time>
					</trkpt>
					<trkpt lat="48.553580" lon="-0.492350">
						<ele>184</ele>
						<time>2026-08-24T09:35:52Z</time>
					</trkpt>
					<trkpt lat="48.553470" lon="-0.492640">
						<ele>184</ele>
						<time>2026-08-24T09:36:03Z</time>
					</trkpt>
					<trkpt lat="48.553330" lon="-0.493160">
						<ele>183</ele>
						<time>2026-08-24T09:36:22Z</time>
					</trkpt>
					<trkpt lat="48.553490" lon="-0.493640">
						<ele>182</ele>
						<time>2026-08-24T09:36:40Z</time>
					</trkpt>
					<trkpt lat="48.553530" lon="-0.493820">
						<ele>183</ele>
						<time>2026-08-24T09:36:46Z</time>
					</trkpt>
					<trkpt lat="48.553540" lon="-0.494430">
						<ele>184</ele>
						<time>2026-08-24T09:37:06Z</time>
					</trkpt>
					<trkpt lat="48.553570" lon="-0.494660">
						<ele>185</ele>
						<time>2026-08-24T09:37:14Z</time>
					</trkpt>
					<trkpt lat="48.553410" lon="-0.495100">
						<ele>186</ele>
						<time>2026-08-24T09:37:31Z</time>
					</trkpt>
					<trkpt lat="48.553320" lon="-0.495300">
						<ele>187</ele>
						<time>2026-08-24T09:37:39Z</time>
					</trkpt>
					<trkpt lat="48.553160" lon="-0.495350">
						<ele>186</ele>
						<time>2026-08-24T09:37:47Z</time>
					</trkpt>
					<trkpt lat="48.553060" lon="-0.495470">
						<ele>187</ele>
						<time>2026-08-24T09:37:53Z</time>
					</trkpt>
					<trkpt lat="48.553020" lon="-0.495580">
						<ele>188</ele>
						<time>2026-08-24T09:37:58Z</time>
					</trkpt>
					<trkpt lat="48.552980" lon="-0.495630">
						<ele>188</ele>
						<time>2026-08-24T09:38:00Z</time>
					</trkpt>
					<trkpt lat="48.552870" lon="-0.495680">
						<ele>188</ele>
						<time>2026-08-24T09:38:06Z</time>
					</trkpt>
					<trkpt lat="48.552670" lon="-0.495660">
						<ele>187</ele>
						<time>2026-08-24T09:38:16Z</time>
					</trkpt>
					<trkpt lat="48.552420" lon="-0.495670">
						<ele>186</ele>
						<time>2026-08-24T09:38:28Z</time>
					</trkpt>
					<trkpt lat="48.552360" lon="-0.495660">
						<ele>187</ele>
						<time>2026-08-24T09:38:31Z</time>
					</trkpt>
					<trkpt lat="48.552280" lon="-0.495630">
						<ele>187</ele>
						<time>2026-08-24T09:38:36Z</time>
					</trkpt>
					<trkpt lat="48.552150" lon="-0.495550">
						<ele>186</ele>
						<time>2026-08-24T09:38:43Z</time>
					</trkpt>
					<trkpt lat="48.552130" lon="-0.495460">
						<ele>185</ele>
						<time>2026-08-24T09:38:46Z</time>
					</trkpt>
					<trkpt lat="48.552090" lon="-0.495440">
						<ele>185</ele>
						<time>2026-08-24T09:38:48Z</time>
					</trkpt>
					<trkpt lat="48.552030" lon="-0.495370">
						<ele>185</ele>
						<time>2026-08-24T09:38:52Z</time>
					</trkpt>
					<trkpt lat="48.551840" lon="-0.495030">
						<ele>181</ele>
						<time>2026-08-24T09:39:06Z</time>
					</trkpt>
					<trkpt lat="48.551760" lon="-0.494910">
						<ele>180</ele>
						<time>2026-08-24T09:39:12Z</time>
					</trkpt>
					<trkpt lat="48.551720" lon="-0.494880">
						<ele>180</ele>
						<time>2026-08-24T09:39:14Z</time>
					</trkpt>
					<trkpt lat="48.551680" lon="-0.494800">
						<ele>180</ele>
						<time>2026-08-24T09:39:18Z</time>
					</trkpt>
					<trkpt lat="48.551620" lon="-0.494730">
						<ele>179</ele>
						<time>2026-08-24T09:39:21Z</time>
					</trkpt>
					<trkpt lat="48.551520" lon="-0.494650">
						<ele>179</ele>
						<time>2026-08-24T09:39:27Z</time>
					</trkpt>
					<trkpt lat="48.551430" lon="-0.494550">
						<ele>179</ele>
						<time>2026-08-24T09:39:33Z</time>
					</trkpt>
					<trkpt lat="48.551400" lon="-0.494530">
						<ele>179</ele>
						<time>2026-08-24T09:39:34Z</time>
					</trkpt>
					<trkpt lat="48.551350" lon="-0.494480">
						<ele>179</ele>
						<time>2026-08-24T09:39:37Z</time>
					</trkpt>
					<trkpt lat="48.551280" lon="-0.494430">
						<ele>179</ele>
						<time>2026-08-24T09:39:41Z</time>
					</trkpt>
					<trkpt lat="48.551250" lon="-0.494380">
						<ele>179</ele>
						<time>2026-08-24T09:39:43Z</time>
					</trkpt>
					<trkpt lat="48.551180" lon="-0.494310">
						<ele>179</ele>
						<time>2026-08-24T09:39:48Z</time>
					</trkpt>
					<trkpt lat="48.551110" lon="-0.494270">
						<ele>179</ele>
						<time>2026-08-24T09:39:51Z</time>
					</trkpt>
					<trkpt lat="48.550960" lon="-0.494230">
						<ele>179</ele>
						<time>2026-08-24T09:39:59Z</time>
					</trkpt>
					<trkpt lat="48.550930" lon="-0.494200">
						<ele>179</ele>
						<time>2026-08-24T09:40:01Z</time>
					</trkpt>
					<trkpt lat="48.550860" lon="-0.494080">
						<ele>179</ele>
						<time>2026-08-24T09:40:06Z</time>
					</trkpt>
					<trkpt lat="48.550810" lon="-0.494020">
						<ele>179</ele>
						<time>2026-08-24T09:40:09Z</time>
					</trkpt>
					<trkpt lat="48.550740" lon="-0.493960">
						<ele>179</ele>
						<time>2026-08-24T09:40:13Z</time>
					</trkpt>
					<trkpt lat="48.550660" lon="-0.493950">
						<ele>180</ele>
						<time>2026-08-24T09:40:17Z</time>
					</trkpt>
					<trkpt lat="48.550550" lon="-0.493910">
						<ele>180</ele>
						<time>2026-08-24T09:40:23Z</time>
					</trkpt>
					<trkpt lat="48.550540" lon="-0.493860">
						<ele>180</ele>
						<time>2026-08-24T09:40:25Z</time>
					</trkpt>
					<trkpt lat="48.550520" lon="-0.493860">
						<ele>180</ele>
						<time>2026-08-24T09:40:26Z</time>
					</trkpt>
					<trkpt lat="48.550500" lon="-0.493870">
						<ele>180</ele>
						<time>2026-08-24T09:40:27Z</time>
					</trkpt>
					<trkpt lat="48.550460" lon="-0.493850">
						<ele>180</ele>
						<time>2026-08-24T09:40:29Z</time>
					</trkpt>
					<trkpt lat="48.550310" lon="-0.493700">
						<ele>180</ele>
						<time>2026-08-24T09:40:38Z</time>
					</trkpt>
					<trkpt lat="48.550230" lon="-0.493640">
						<ele>180</ele>
						<time>2026-08-24T09:40:42Z</time>
					</trkpt>
					<trkpt lat="48.550170" lon="-0.493670">
						<ele>181</ele>
						<time>2026-08-24T09:40:45Z</time>
					</trkpt>
					<trkpt lat="48.550120" lon="-0.493650">
						<ele>181</ele>
						<time>2026-08-24T09:40:48Z</time>
					</trkpt>
					<trkpt lat="48.550110" lon="-0.493630">
						<ele>180</ele>
						<time>2026-08-24T09:40:49Z</time>
					</trkpt>
					<trkpt lat="48.550040" lon="-0.493590">
						<ele>180</ele>
						<time>2026-08-24T09:40:53Z</time>
					</trkpt>
					<trkpt lat="48.550010" lon="-0.493550">
						<ele>180</ele>
						<time>2026-08-24T09:40:55Z</time>
					</trkpt>
					<trkpt lat="48.549980" lon="-0.493460">
						<ele>179</ele>
						<time>2026-08-24T09:40:58Z</time>
					</trkpt>
					<trkpt lat="48.549930" lon="-0.493420">
						<ele>178</ele>
						<time>2026-08-24T09:41:01Z</time>
					</trkpt>
					<trkpt lat="48.549900" lon="-0.493430">
						<ele>178</ele>
						<time>2026-08-24T09:41:02Z</time>
					</trkpt>
					<trkpt lat="48.549890" lon="-0.493450">
						<ele>178</ele>
						<time>2026-08-24T09:41:03Z</time>
					</trkpt>
					<trkpt lat="48.549870" lon="-0.493450">
						<ele>178</ele>
						<time>2026-08-24T09:41:04Z</time>
					</trkpt>
					<trkpt lat="48.549650" lon="-0.493290">
						<ele>175</ele>
						<time>2026-08-24T09:41:16Z</time>
					</trkpt>
					<trkpt lat="48.549600" lon="-0.493290">
						<ele>175</ele>
						<time>2026-08-24T09:41:19Z</time>
					</trkpt>
					<trkpt lat="48.549570" lon="-0.493270">
						<ele>174</ele>
						<time>2026-08-24T09:41:21Z</time>
					</trkpt>
					<trkpt lat="48.549450" lon="-0.493090">
						<ele>173</ele>
						<time>2026-08-24T09:41:29Z</time>
					</trkpt>
					<trkpt lat="48.549340" lon="-0.493020">
						<ele>172</ele>
						<time>2026-08-24T09:41:35Z</time>
					</trkpt>
					<trkpt lat="48.549290" lon="-0.493020">
						<ele>172</ele>
						<time>2026-08-24T09:41:37Z</time>
					</trkpt>
					<trkpt lat="48.549250" lon="-0.493070">
						<ele>172</ele>
						<time>2026-08-24T09:41:40Z</time>
					</trkpt>
					<trkpt lat="48.549230" lon="-0.493150">
						<ele>171</ele>
						<time>2026-08-24T09:41:43Z</time>
					</trkpt>
					<trkpt lat="48.549210" lon="-0.493200">
						<ele>171</ele>
						<time>2026-08-24T09:41:45Z</time>
					</trkpt>
					<trkpt lat="48.549070" lon="-0.493370">
						<ele>171</ele>
						<time>2026-08-24T09:41:54Z</time>
					</trkpt>
					<trkpt lat="48.549000" lon="-0.493470">
						<ele>172</ele>
						<time>2026-08-24T09:41:59Z</time>
					</trkpt>
					<trkpt lat="48.548900" lon="-0.493530">
						<ele>172</ele>
						<time>2026-08-24T09:42:04Z</time>
					</trkpt>
					<trkpt lat="48.548340" lon="-0.493790">
						<ele>173</ele>
						<time>2026-08-24T09:42:33Z</time>
					</trkpt>
					<trkpt lat="48.548270" lon="-0.493820">
						<ele>174</ele>
						<time>2026-08-24T09:42:37Z</time>
					</trkpt>
					<trkpt lat="48.548220" lon="-0.493810">
						<ele>174</ele>
						<time>2026-08-24T09:42:40Z</time>
					</trkpt>
					<trkpt lat="48.548180" lon="-0.493770">
						<ele>174</ele>
						<time>2026-08-24T09:42:42Z</time>
					</trkpt>
					<trkpt lat="48.548160" lon="-0.493770">
						<ele>174</ele>
						<time>2026-08-24T09:42:43Z</time>
					</trkpt>
					<trkpt lat="48.548140" lon="-0.493790">
						<ele>174</ele>
						<time>2026-08-24T09:42:44Z</time>
					</trkpt>
					<trkpt lat="48.548130" lon="-0.493780">
						<ele>174</ele>
						<time>2026-08-24T09:42:45Z</time>
					</trkpt>
					<trkpt lat="48.548090" lon="-0.493740">
						<ele>174</ele>
						<time>2026-08-24T09:42:47Z</time>
					</trkpt>
					<trkpt lat="48.547990" lon="-0.493680">
						<ele>174</ele>
						<time>2026-08-24T09:42:52Z</time>
					</trkpt>
					<trkpt lat="48.547960" lon="-0.493680">
						<ele>174</ele>
						<time>2026-08-24T09:42:54Z</time>
					</trkpt>
					<trkpt lat="48.547950" lon="-0.493670">
						<ele>174</ele>
						<time>2026-08-24T09:42:55Z</time>
					</trkpt>
					<trkpt lat="48.547960" lon="-0.493650">
						<ele>174</ele>
						<time>2026-08-24T09:42:55Z</time>
					</trkpt>
					<trkpt lat="48.547950" lon="-0.493630">
						<ele>174</ele>
						<time>2026-08-24T09:42:56Z</time>
					</trkpt>
					<trkpt lat="48.547900" lon="-0.493630">
						<ele>174</ele>
						<time>2026-08-24T09:42:59Z</time>
					</trkpt>
					<trkpt lat="48.547860" lon="-0.493620">
						<ele>174</ele>
						<time>2026-08-24T09:43:01Z</time>
					</trkpt>
					<trkpt lat="48.547800" lon="-0.493650">
						<ele>175</ele>
						<time>2026-08-24T09:43:04Z</time>
					</trkpt>
					<trkpt lat="48.547660" lon="-0.493680">
						<ele>176</ele>
						<time>2026-08-24T09:43:11Z</time>
					</trkpt>
					<trkpt lat="48.547570" lon="-0.493770">
						<ele>177</ele>
						<time>2026-08-24T09:43:16Z</time>
					</trkpt>
					<trkpt lat="48.547540" lon="-0.493800">
						<ele>177</ele>
						<time>2026-08-24T09:43:18Z</time>
					</trkpt>
					<trkpt lat="48.547520" lon="-0.493830">
						<ele>177</ele>
						<time>2026-08-24T09:43:20Z</time>
					</trkpt>
					<trkpt lat="48.547480" lon="-0.493850">
						<ele>177</ele>
						<time>2026-08-24T09:43:22Z</time>
					</trkpt>
					<trkpt lat="48.547460" lon="-0.493880">
						<ele>177</ele>
						<time>2026-08-24T09:43:23Z</time>
					</trkpt>
					<trkpt lat="48.547450" lon="-0.493930">
						<ele>177</ele>
						<time>2026-08-24T09:43:25Z</time>
					</trkpt>
					<trkpt lat="48.547470" lon="-0.494030">
						<ele>178</ele>
						<time>2026-08-24T09:43:28Z</time>
					</trkpt>
					<trkpt lat="48.547470" lon="-0.494060">
						<ele>178</ele>
						<time>2026-08-24T09:43:29Z</time>
					</trkpt>
					<trkpt lat="48.547430" lon="-0.494110">
						<ele>178</ele>
						<time>2026-08-24T09:43:32Z</time>
					</trkpt>
					<trkpt lat="48.548400" lon="-0.495830">
						<ele>174</ele>
						<time>2026-08-24T09:44:47Z</time>
					</trkpt>
					<trkpt lat="48.548940" lon="-0.496860">
						<ele>177</ele>
						<time>2026-08-24T09:45:30Z</time>
					</trkpt>
					<trkpt lat="48.548950" lon="-0.496890">
						<ele>177</ele>
						<time>2026-08-24T09:45:31Z</time>
					</trkpt>
					<trkpt lat="48.549070" lon="-0.497300">
						<ele>177</ele>
						<time>2026-08-24T09:45:46Z</time>
					</trkpt>
					<trkpt lat="48.549140" lon="-0.497870">
						<ele>176</ele>
						<time>2026-08-24T09:46:05Z</time>
					</trkpt>
					<trkpt lat="48.549410" lon="-0.498660">
						<ele>176</ele>
						<time>2026-08-24T09:46:35Z</time>
					</trkpt>
					<trkpt lat="48.549630" lon="-0.499050">
						<ele>177</ele>
						<time>2026-08-24T09:46:52Z</time>
					</trkpt>
					<trkpt lat="48.550010" lon="-0.499600">
						<ele>180</ele>
						<time>2026-08-24T09:47:18Z</time>
					</trkpt>
					<trkpt lat="48.549920" lon="-0.499740">
						<ele>179</ele>
						<time>2026-08-24T09:47:25Z</time>
					</trkpt>
					<trkpt lat="48.549810" lon="-0.499970">
						<ele>177</ele>
						<time>2026-08-24T09:47:34Z</time>
					</trkpt>
					<trkpt lat="48.549750" lon="-0.500260">
						<ele>175</ele>
						<time>2026-08-24T09:47:44Z</time>
					</trkpt>
					<trkpt lat="48.549720" lon="-0.500540">
						<ele>174</ele>
						<time>2026-08-24T09:47:54Z</time>
					</trkpt>
					<trkpt lat="48.549730" lon="-0.500870">
						<ele>174</ele>
						<time>2026-08-24T09:48:05Z</time>
					</trkpt>
					<trkpt lat="48.549680" lon="-0.500970">
						<ele>174</ele>
						<time>2026-08-24T09:48:09Z</time>
					</trkpt>
					<trkpt lat="48.549920" lon="-0.501140">
						<ele>176</ele>
						<time>2026-08-24T09:48:22Z</time>
					</trkpt>
					<trkpt lat="48.550070" lon="-0.501450">
						<ele>177</ele>
						<time>2026-08-24T09:48:35Z</time>
					</trkpt>
					<trkpt lat="48.550190" lon="-0.501950">
						<ele>180</ele>
						<time>2026-08-24T09:48:52Z</time>
					</trkpt>
					<trkpt lat="48.551390" lon="-0.502360">
						<ele>185</ele>
						<time>2026-08-24T09:49:54Z</time>
					</trkpt>
					<trkpt lat="48.551350" lon="-0.502690">
						<ele>187</ele>
						<time>2026-08-24T09:50:05Z</time>
					</trkpt>
					<trkpt lat="48.551510" lon="-0.502840">
						<ele>188</ele>
						<time>2026-08-24T09:50:14Z</time>
					</trkpt>
					<trkpt lat="48.551580" lon="-0.502910">
						<ele>188</ele>
						<time>2026-08-24T09:50:19Z</time>
					</trkpt>
					<trkpt lat="48.551910" lon="-0.503050">
						<ele>189</ele>
						<time>2026-08-24T09:50:36Z</time>
					</trkpt>
					<trkpt lat="48.552070" lon="-0.503320">
						<ele>190</ele>
						<time>2026-08-24T09:50:48Z</time>
					</trkpt>
					<trkpt lat="48.552140" lon="-0.503380">
						<ele>190</ele>
						<time>2026-08-24T09:50:52Z</time>
					</trkpt>
					<trkpt lat="48.552190" lon="-0.503480">
						<ele>190</ele>
						<time>2026-08-24T09:50:56Z</time>
					</trkpt>
					<trkpt lat="48.552210" lon="-0.503540">
						<ele>190</ele>
						<time>2026-08-24T09:50:58Z</time>
					</trkpt>
					<trkpt lat="48.552220" lon="-0.503670">
						<ele>191</ele>
						<time>2026-08-24T09:51:02Z</time>
					</trkpt>
					<trkpt lat="48.552260" lon="-0.503810">
						<ele>191</ele>
						<time>2026-08-24T09:51:08Z</time>
					</trkpt>
					<trkpt lat="48.552380" lon="-0.503880">
						<ele>191</ele>
						<time>2026-08-24T09:51:14Z</time>
					</trkpt>
					<trkpt lat="48.552340" lon="-0.504090">
						<ele>192</ele>
						<time>2026-08-24T09:51:21Z</time>
					</trkpt>
					<trkpt lat="48.552340" lon="-0.504240">
						<ele>192</ele>
						<time>2026-08-24T09:51:26Z</time>
					</trkpt>
					<trkpt lat="48.552280" lon="-0.504440">
						<ele>192</ele>
						<time>2026-08-24T09:51:33Z</time>
					</trkpt>
					<trkpt lat="48.552110" lon="-0.504600">
						<ele>193</ele>
						<time>2026-08-24T09:51:43Z</time>
					</trkpt>
					<trkpt lat="48.552040" lon="-0.504720">
						<ele>193</ele>
						<time>2026-08-24T09:51:49Z</time>
					</trkpt>
					<trkpt lat="48.552390" lon="-0.505600">
						<ele>195</ele>
						<time>2026-08-24T09:52:23Z</time>
					</trkpt>
					<trkpt lat="48.552370" lon="-0.505670">
						<ele>195</ele>
						<time>2026-08-24T09:52:25Z</time>
					</trkpt>
					<trkpt lat="48.552410" lon="-0.505680">
						<ele>195</ele>
						<time>2026-08-24T09:52:27Z</time>
					</trkpt>
					<trkpt lat="48.552360" lon="-0.506100">
						<ele>195</ele>
						<time>2026-08-24T09:52:41Z</time>
					</trkpt>
					<trkpt lat="48.552330" lon="-0.506490">
						<ele>195</ele>
						<time>2026-08-24T09:52:54Z</time>
					</trkpt>
					<trkpt lat="48.552320" lon="-0.506750">
						<ele>194</ele>
						<time>2026-08-24T09:53:03Z</time>
					</trkpt>
					<trkpt lat="48.552240" lon="-0.507880">
						<ele>195</ele>
						<time>2026-08-24T09:53:41Z</time>
					</trkpt>
					<trkpt lat="48.552230" lon="-0.508190">
						<ele>195</ele>
						<time>2026-08-24T09:53:51Z</time>
					</trkpt>
					<trkpt lat="48.552260" lon="-0.508250">
						<ele>195</ele>
						<time>2026-08-24T09:53:54Z</time>
					</trkpt>
					<trkpt lat="48.552240" lon="-0.508270">
						<ele>195</ele>
						<time>2026-08-24T09:53:55Z</time>
					</trkpt>
					<trkpt lat="48.552200" lon="-0.508320">
						<ele>195</ele>
						<time>2026-08-24T09:53:57Z</time>
					</trkpt>
					<trkpt lat="48.552170" lon="-0.508390">
						<ele>195</ele>
						<time>2026-08-24T09:54:00Z</time>
					</trkpt>
					<trkpt lat="48.552140" lon="-0.508440">
						<ele>195</ele>
						<time>2026-08-24T09:54:02Z</time>
					</trkpt>
					<trkpt lat="48.552050" lon="-0.508510">
						<ele>195</ele>
						<time>2026-08-24T09:54:07Z</time>
					</trkpt>
					<trkpt lat="48.552050" lon="-0.508620">
						<ele>195</ele>
						<time>2026-08-24T09:54:11Z</time>
					</trkpt>
					<trkpt lat="48.552060" lon="-0.508740">
						<ele>195</ele>
						<time>2026-08-24T09:54:15Z</time>
					</trkpt>
					<trkpt lat="48.552070" lon="-0.508910">
						<ele>194</ele>
						<time>2026-08-24T09:54:21Z</time>
					</trkpt>
					<trkpt lat="48.552070" lon="-0.508960">
						<ele>194</ele>
						<time>2026-08-24T09:54:22Z</time>
					</trkpt>
					<trkpt lat="48.552070" lon="-0.508990">
						<ele>194</ele>
						<time>2026-08-24T09:54:23Z</time>
					</trkpt>
					<trkpt lat="48.552080" lon="-0.509060">
						<ele>194</ele>
						<time>2026-08-24T09:54:26Z</time>
					</trkpt>
					<trkpt lat="48.552120" lon="-0.509480">
						<ele>191</ele>
						<time>2026-08-24T09:54:40Z</time>
					</trkpt>
					<trkpt lat="48.552150" lon="-0.509600">
						<ele>190</ele>
						<time>2026-08-24T09:54:44Z</time>
					</trkpt>
					<trkpt lat="48.552220" lon="-0.509710">
						<ele>189</ele>
						<time>2026-08-24T09:54:49Z</time>
					</trkpt>
					<trkpt lat="48.552260" lon="-0.509760">
						<ele>189</ele>
						<time>2026-08-24T09:54:52Z</time>
					</trkpt>
					<trkpt lat="48.552380" lon="-0.509860">
						<ele>189</ele>
						<time>2026-08-24T09:54:59Z</time>
					</trkpt>
					<trkpt lat="48.552580" lon="-0.509940">
						<ele>187</ele>
						<time>2026-08-24T09:55:09Z</time>
					</trkpt>
					<trkpt lat="48.552760" lon="-0.510290">
						<ele>182</ele>
						<time>2026-08-24T09:55:24Z</time>
					</trkpt>
					<trkpt lat="48.552970" lon="-0.510740">
						<ele>177</ele>
						<time>2026-08-24T09:55:42Z</time>
					</trkpt>
					<trkpt lat="48.553110" lon="-0.511130">
						<ele>176</ele>
						<time>2026-08-24T09:55:56Z</time>
					</trkpt>
					<trkpt lat="48.552960" lon="-0.511190">
						<ele>175</ele>
						<time>2026-08-24T09:56:04Z</time>
					</trkpt>
					<trkpt lat="48.552510" lon="-0.511520">
						<ele>170</ele>
						<time>2026-08-24T09:56:29Z</time>
					</trkpt>
					<trkpt lat="48.552140" lon="-0.511650">
						<ele>166</ele>
						<time>2026-08-24T09:56:48Z</time>
					</trkpt>
					<trkpt lat="48.551690" lon="-0.511640">
						<ele>163</ele>
						<time>2026-08-24T09:57:11Z</time>
					</trkpt>
					<trkpt lat="48.551410" lon="-0.511650">
						<ele>161</ele>
						<time>2026-08-24T09:57:25Z</time>
					</trkpt>
					<trkpt lat="48.551240" lon="-0.511710">
						<ele>160</ele>
						<time>2026-08-24T09:57:34Z</time>
					</trkpt>
					<trkpt lat="48.551020" lon="-0.511850">
						<ele>159</ele>
						<time>2026-08-24T09:57:46Z</time>
					</trkpt>
					<trkpt lat="48.550850" lon="-0.511930">
						<ele>157</ele>
						<time>2026-08-24T09:57:54Z</time>
					</trkpt>
					<trkpt lat="48.550810" lon="-0.511960">
						<ele>157</ele>
						<time>2026-08-24T09:57:57Z</time>
					</trkpt>
					<trkpt lat="48.550980" lon="-0.512580">
						<ele>157</ele>
						<time>2026-08-24T09:58:19Z</time>
					</trkpt>
					<trkpt lat="48.551020" lon="-0.512840">
						<ele>158</ele>
						<time>2026-08-24T09:58:28Z</time>
					</trkpt>
					<trkpt lat="48.551070" lon="-0.513260">
						<ele>159</ele>
						<time>2026-08-24T09:58:42Z</time>
					</trkpt>
					<trkpt lat="48.551260" lon="-0.513220">
						<ele>161</ele>
						<time>2026-08-24T09:58:51Z</time>
					</trkpt>
					<trkpt lat="48.551680" lon="-0.513200">
						<ele>166</ele>
						<time>2026-08-24T09:59:12Z</time>
					</trkpt>
					<trkpt lat="48.551960" lon="-0.513160">
						<ele>170</ele>
						<time>2026-08-24T09:59:27Z</time>
					</trkpt>
					<trkpt lat="48.552320" lon="-0.513150">
						<ele>175</ele>
						<time>2026-08-24T09:59:45Z</time>
					</trkpt>
					<trkpt lat="48.552600" lon="-0.513200">
						<ele>178</ele>
						<time>2026-08-24T09:59:59Z</time>
					</trkpt>
					<trkpt lat="48.552940" lon="-0.513470">
						<ele>181</ele>
						<time>2026-08-24T10:00:18Z</time>
					</trkpt>
					<trkpt lat="48.553210" lon="-0.513770">
						<ele>183</ele>
						<time>2026-08-24T10:00:35Z</time>
					</trkpt>
					<trkpt lat="48.553250" lon="-0.513800">
						<ele>183</ele>
						<time>2026-08-24T10:00:37Z</time>
					</trkpt>
					<trkpt lat="48.553660" lon="-0.514280">
						<ele>188</ele>
						<time>2026-08-24T10:01:03Z</time>
					</trkpt>
					<trkpt lat="48.554010" lon="-0.514670">
						<ele>191</ele>
						<time>2026-08-24T10:01:25Z</time>
					</trkpt>
					<trkpt lat="48.554280" lon="-0.515020">
						<ele>192</ele>
						<time>2026-08-24T10:01:42Z</time>
					</trkpt>
					<trkpt lat="48.554720" lon="-0.515560">
						<ele>196</ele>
						<time>2026-08-24T10:02:11Z</time>
					</trkpt>
					<trkpt lat="48.556050" lon="-0.516890">
						<ele>206</ele>
						<time>2026-08-24T10:03:31Z</time>
					</trkpt>
					<trkpt lat="48.556110" lon="-0.517010">
						<ele>207</ele>
						<time>2026-08-24T10:03:36Z</time>
					</trkpt>
					<trkpt lat="48.556490" lon="-0.517430">
						<ele>209</ele>
						<time>2026-08-24T10:03:59Z</time>
					</trkpt>
					<trkpt lat="48.556620" lon="-0.517540">
						<ele>209</ele>
						<time>2026-08-24T10:04:07Z</time>
					</trkpt>
					<trkpt lat="48.556730" lon="-0.517500">
						<ele>210</ele>
						<time>2026-08-24T10:04:12Z</time>
					</trkpt>
					<trkpt lat="48.556830" lon="-0.517440">
						<ele>210</ele>
						<time>2026-08-24T10:04:18Z</time>
					</trkpt>
					<trkpt lat="48.557130" lon="-0.517700">
						<ele>210</ele>
						<time>2026-08-24T10:04:35Z</time>
					</trkpt>
					<trkpt lat="48.557440" lon="-0.518010">
						<ele>210</ele>
						<time>2026-08-24T10:04:54Z</time>
					</trkpt>
					<trkpt lat="48.557570" lon="-0.518170">
						<ele>209</ele>
						<time>2026-08-24T10:05:02Z</time>
					</trkpt>
					<trkpt lat="48.557770" lon="-0.518280">
						<ele>208</ele>
						<time>2026-08-24T10:05:13Z</time>
					</trkpt>
					<trkpt lat="48.557990" lon="-0.518740">
						<ele>208</ele>
						<time>2026-08-24T10:05:31Z</time>
					</trkpt>
					<trkpt lat="48.558200" lon="-0.519400">
						<ele>209</ele>
						<time>2026-08-24T10:05:56Z</time>
					</trkpt>
					<trkpt lat="48.558390" lon="-0.520170">
						<ele>211</ele>
						<time>2026-08-24T10:06:23Z</time>
					</trkpt>
					<trkpt lat="48.558520" lon="-0.520620">
						<ele>212</ele>
						<time>2026-08-24T10:06:39Z</time>
					</trkpt>
					<trkpt lat="48.558540" lon="-0.521000">
						<ele>214</ele>
						<time>2026-08-24T10:06:52Z</time>
					</trkpt>
					<trkpt lat="48.558520" lon="-0.521090">
						<ele>214</ele>
						<time>2026-08-24T10:06:55Z</time>
					</trkpt>
					<trkpt lat="48.558430" lon="-0.521450">
						<ele>216</ele>
						<time>2026-08-24T10:07:08Z</time>
					</trkpt>
					<trkpt lat="48.558470" lon="-0.521680">
						<ele>218</ele>
						<time>2026-08-24T10:07:16Z</time>
					</trkpt>
					<trkpt lat="48.558590" lon="-0.522090">
						<ele>220</ele>
						<time>2026-08-24T10:07:30Z</time>
					</trkpt>
					<trkpt lat="48.558690" lon="-0.522510">
						<ele>222</ele>
						<time>2026-08-24T10:07:45Z</time>
					</trkpt>
					<trkpt lat="48.558870" lon="-0.523000">
						<ele>223</ele>
						<time>2026-08-24T10:08:04Z</time>
					</trkpt>
					<trkpt lat="48.559000" lon="-0.523270">
						<ele>223</ele>
						<time>2026-08-24T10:08:15Z</time>
					</trkpt>
					<trkpt lat="48.559430" lon="-0.524050">
						<ele>223</ele>
						<time>2026-08-24T10:08:48Z</time>
					</trkpt>
					<trkpt lat="48.559560" lon="-0.524410">
						<ele>224</ele>
						<time>2026-08-24T10:09:02Z</time>
					</trkpt>
					<trkpt lat="48.559720" lon="-0.524680">
						<ele>225</ele>
						<time>2026-08-24T10:09:14Z</time>
					</trkpt>
					<trkpt lat="48.559960" lon="-0.525360">
						<ele>226</ele>
						<time>2026-08-24T10:09:40Z</time>
					</trkpt>
					<trkpt lat="48.560080" lon="-0.525830">
						<ele>226</ele>
						<time>2026-08-24T10:09:56Z</time>
					</trkpt>
					<trkpt lat="48.560170" lon="-0.526370">
						<ele>225</ele>
						<time>2026-08-24T10:10:15Z</time>
					</trkpt>
					<trkpt lat="48.560460" lon="-0.525310">
						<ele>226</ele>
						<time>2026-08-24T10:10:53Z</time>
					</trkpt>
					<trkpt lat="48.560580" lon="-0.525140">
						<ele>226</ele>
						<time>2026-08-24T10:11:01Z</time>
					</trkpt>
					<trkpt lat="48.561160" lon="-0.524200">
						<ele>226</ele>
						<time>2026-08-24T10:11:43Z</time>
					</trkpt>
					<trkpt lat="48.561540" lon="-0.523850">
						<ele>223</ele>
						<time>2026-08-24T10:12:06Z</time>
					</trkpt>
					<trkpt lat="48.561950" lon="-0.523580">
						<ele>219</ele>
						<time>2026-08-24T10:12:28Z</time>
					</trkpt>
					<trkpt lat="48.562150" lon="-0.523310">
						<ele>215</ele>
						<time>2026-08-24T10:12:42Z</time>
					</trkpt>
					<trkpt lat="48.562210" lon="-0.522710">
						<ele>212</ele>
						<time>2026-08-24T10:13:02Z</time>
					</trkpt>
					<trkpt lat="48.562160" lon="-0.522450">
						<ele>210</ele>
						<time>2026-08-24T10:13:11Z</time>
					</trkpt>
					<trkpt lat="48.562310" lon="-0.522160">
						<ele>209</ele>
						<time>2026-08-24T10:13:23Z</time>
					</trkpt>
					<trkpt lat="48.562180" lon="-0.522170">
						<ele>210</ele>
						<time>2026-08-24T10:13:29Z</time>
					</trkpt>
					<trkpt lat="48.561920" lon="-0.522000">
						<ele>209</ele>
						<time>2026-08-24T10:13:43Z</time>
					</trkpt>
					<trkpt lat="48.561690" lon="-0.521590">
						<ele>207</ele>
						<time>2026-08-24T10:14:01Z</time>
					</trkpt>
					<trkpt lat="48.561560" lon="-0.521460">
						<ele>207</ele>
						<time>2026-08-24T10:14:09Z</time>
					</trkpt>
					<trkpt lat="48.561430" lon="-0.521330">
						<ele>207</ele>
						<time>2026-08-24T10:14:17Z</time>
					</trkpt>
					<trkpt lat="48.561190" lon="-0.521110">
						<ele>207</ele>
						<time>2026-08-24T10:14:31Z</time>
					</trkpt>
					<trkpt lat="48.560960" lon="-0.520930">
						<ele>206</ele>
						<time>2026-08-24T10:14:44Z</time>
					</trkpt>
					<trkpt lat="48.560570" lon="-0.520950">
						<ele>207</ele>
						<time>2026-08-24T10:15:03Z</time>
					</trkpt>
					<trkpt lat="48.560130" lon="-0.521040">
						<ele>207</ele>
						<time>2026-08-24T10:15:26Z</time>
					</trkpt>
					<trkpt lat="48.559920" lon="-0.521210">
						<ele>210</ele>
						<time>2026-08-24T10:15:38Z</time>
					</trkpt>
					<trkpt lat="48.559760" lon="-0.521210">
						<ele>211</ele>
						<time>2026-08-24T10:15:46Z</time>
					</trkpt>
					<trkpt lat="48.559460" lon="-0.521090">
						<ele>212</ele>
						<time>2026-08-24T10:16:01Z</time>
					</trkpt>
					<trkpt lat="48.559100" lon="-0.520930">
						<ele>212</ele>
						<time>2026-08-24T10:16:20Z</time>
					</trkpt>
					<trkpt lat="48.558810" lon="-0.520730">
						<ele>211</ele>
						<time>2026-08-24T10:16:36Z</time>
					</trkpt>
					<trkpt lat="48.558520" lon="-0.520620">
						<ele>212</ele>
						<time>2026-08-24T10:16:51Z</time>
					</trkpt>
					<trkpt lat="48.558630" lon="-0.520290">
						<ele>210</ele>
						<time>2026-08-24T10:17:03Z</time>
					</trkpt>
					<trkpt lat="48.558740" lon="-0.520230">
						<ele>210</ele>
						<time>2026-08-24T10:17:09Z</time>
					</trkpt>
					<trkpt lat="48.558680" lon="-0.520020">
						<ele>209</ele>
						<time>2026-08-24T10:17:16Z</time>
					</trkpt>
					<trkpt lat="48.558920" lon="-0.519140">
						<ele>206</ele>
						<time>2026-08-24T10:17:48Z</time>
					</trkpt>
					<trkpt lat="48.559350" lon="-0.518710">
						<ele>204</ele>
						<time>2026-08-24T10:18:14Z</time>
					</trkpt>
					<trkpt lat="48.559330" lon="-0.517900">
						<ele>202</ele>
						<time>2026-08-24T10:18:41Z</time>
					</trkpt>
					<trkpt lat="48.559480" lon="-0.517410">
						<ele>203</ele>
						<time>2026-08-24T10:18:58Z</time>
					</trkpt>
					<trkpt lat="48.559500" lon="-0.516490">
						<ele>206</ele>
						<time>2026-08-24T10:19:29Z</time>
					</trkpt>
					<trkpt lat="48.559000" lon="-0.515700">
						<ele>205</ele>
						<time>2026-08-24T10:20:05Z</time>
					</trkpt>
					<trkpt lat="48.558680" lon="-0.514830">
						<ele>203</ele>
						<time>2026-08-24T10:20:38Z</time>
					</trkpt>
					<trkpt lat="48.558580" lon="-0.514020">
						<ele>200</ele>
						<time>2026-08-24T10:21:05Z</time>
					</trkpt>
					<trkpt lat="48.558410" lon="-0.512730">
						<ele>200</ele>
						<time>2026-08-24T10:21:49Z</time>
					</trkpt>
					<trkpt lat="48.557820" lon="-0.508150">
						<ele>207</ele>
						<time>2026-08-24T10:24:24Z</time>
					</trkpt>
					<trkpt lat="48.557770" lon="-0.507870">
						<ele>206</ele>
						<time>2026-08-24T10:24:33Z</time>
					</trkpt>
					<trkpt lat="48.557810" lon="-0.507440">
						<ele>205</ele>
						<time>2026-08-24T10:24:48Z</time>
					</trkpt>
					<trkpt lat="48.558430" lon="-0.507400">
						<ele>205</ele>
						<time>2026-08-24T10:25:19Z</time>
					</trkpt>
					<trkpt lat="48.559320" lon="-0.507400">
						<ele>203</ele>
						<time>2026-08-24T10:26:03Z</time>
					</trkpt>
					<trkpt lat="48.560140" lon="-0.507300">
						<ele>198</ele>
						<time>2026-08-24T10:26:44Z</time>
					</trkpt>
					<trkpt lat="48.560300" lon="-0.507030">
						<ele>196</ele>
						<time>2026-08-24T10:26:56Z</time>
					</trkpt>
					<trkpt lat="48.560350" lon="-0.506380">
						<ele>192</ele>
						<time>2026-08-24T10:27:18Z</time>
					</trkpt>
					<trkpt lat="48.560180" lon="-0.505570">
						<ele>190</ele>
						<time>2026-08-24T10:27:46Z</time>
					</trkpt>
					<trkpt lat="48.560030" lon="-0.505130">
						<ele>190</ele>
						<time>2026-08-24T10:28:03Z</time>
					</trkpt>
					<trkpt lat="48.560330" lon="-0.504710">
						<ele>188</ele>
						<time>2026-08-24T10:28:23Z</time>
					</trkpt>
					<trkpt lat="48.560710" lon="-0.504290">
						<ele>185</ele>
						<time>2026-08-24T10:28:47Z</time>
					</trkpt>
					<trkpt lat="48.560830" lon="-0.504140">
						<ele>185</ele>
						<time>2026-08-24T10:28:54Z</time>
					</trkpt>
					<trkpt lat="48.560580" lon="-0.503600">
						<ele>186</ele>
						<time>2026-08-24T10:29:16Z</time>
					</trkpt>
					<trkpt lat="48.560290" lon="-0.502580">
						<ele>185</ele>
						<time>2026-08-24T10:29:53Z</time>
					</trkpt>
					<trkpt lat="48.560180" lon="-0.502060">
						<ele>185</ele>
						<time>2026-08-24T10:30:11Z</time>
					</trkpt>
					<trkpt lat="48.560230" lon="-0.501330">
						<ele>185</ele>
						<time>2026-08-24T10:30:35Z</time>
					</trkpt>
					<trkpt lat="48.561390" lon="-0.500610">
						<ele>188</ele>
						<time>2026-08-24T10:31:38Z</time>
					</trkpt>
					<trkpt lat="48.561970" lon="-0.500260">
						<ele>190</ele>
						<time>2026-08-24T10:32:09Z</time>
					</trkpt>
					<trkpt lat="48.562550" lon="-0.499950">
						<ele>192</ele>
						<time>2026-08-24T10:32:40Z</time>
					</trkpt>
					<trkpt lat="48.562640" lon="-0.499950">
						<ele>193</ele>
						<time>2026-08-24T10:32:45Z</time>
					</trkpt>
					<trkpt lat="48.563220" lon="-0.500140">
						<ele>200</ele>
						<time>2026-08-24T10:33:14Z</time>
					</trkpt>
					<trkpt lat="48.563380" lon="-0.500140">
						<ele>202</ele>
						<time>2026-08-24T10:33:22Z</time>
					</trkpt>
					<trkpt lat="48.563520" lon="-0.500050">
						<ele>203</ele>
						<time>2026-08-24T10:33:30Z</time>
					</trkpt>
					<trkpt lat="48.563550" lon="-0.500000">
						<ele>203</ele>
						<time>2026-08-24T10:33:32Z</time>
					</trkpt>
					<trkpt lat="48.563710" lon="-0.499660">
						<ele>205</ele>
						<time>2026-08-24T10:33:46Z</time>
					</trkpt>
					<trkpt lat="48.563820" lon="-0.499370">
						<ele>206</ele>
						<time>2026-08-24T10:33:57Z</time>
					</trkpt>
					<trkpt lat="48.563910" lon="-0.499180">
						<ele>207</ele>
						<time>2026-08-24T10:34:05Z</time>
					</trkpt>
					<trkpt lat="48.564180" lon="-0.498940">
						<ele>209</ele>
						<time>2026-08-24T10:34:20Z</time>
					</trkpt>
					<trkpt lat="48.564250" lon="-0.498810">
						<ele>209</ele>
						<time>2026-08-24T10:34:26Z</time>
					</trkpt>
					<trkpt lat="48.564330" lon="-0.498700">
						<ele>209</ele>
						<time>2026-08-24T10:34:31Z</time>
					</trkpt>
					<trkpt lat="48.564390" lon="-0.499010">
						<ele>209</ele>
						<time>2026-08-24T10:34:42Z</time>
					</trkpt>
					<trkpt lat="48.564520" lon="-0.499150">
						<ele>209</ele>
						<time>2026-08-24T10:34:50Z</time>
					</trkpt>
					<trkpt lat="48.564650" lon="-0.499200">
						<ele>208</ele>
						<time>2026-08-24T10:34:57Z</time>
					</trkpt>
					<trkpt lat="48.564700" lon="-0.499490">
						<ele>208</ele>
						<time>2026-08-24T10:35:07Z</time>
					</trkpt>
					<trkpt lat="48.564790" lon="-0.499680">
						<ele>207</ele>
						<time>2026-08-24T10:35:14Z</time>
					</trkpt>
					<trkpt lat="48.564990" lon="-0.499700">
						<ele>207</ele>
						<time>2026-08-24T10:35:25Z</time>
					</trkpt>
					<trkpt lat="48.565110" lon="-0.499640">
						<ele>207</ele>
						<time>2026-08-24T10:35:31Z</time>
					</trkpt>
					<trkpt lat="48.565250" lon="-0.499510">
						<ele>207</ele>
						<time>2026-08-24T10:35:39Z</time>
					</trkpt>
					<trkpt lat="48.565270" lon="-0.499480">
						<ele>207</ele>
						<time>2026-08-24T10:35:40Z</time>
					</trkpt>
					<trkpt lat="48.565300" lon="-0.499430">
						<ele>207</ele>
						<time>2026-08-24T10:35:43Z</time>
					</trkpt>
					<trkpt lat="48.565660" lon="-0.499370">
						<ele>206</ele>
						<time>2026-08-24T10:36:01Z</time>
					</trkpt>
					<trkpt lat="48.565720" lon="-0.499320">
						<ele>206</ele>
						<time>2026-08-24T10:36:04Z</time>
					</trkpt>
					<trkpt lat="48.565740" lon="-0.499260">
						<ele>207</ele>
						<time>2026-08-24T10:36:06Z</time>
					</trkpt>
					<trkpt lat="48.565810" lon="-0.498770">
						<ele>208</ele>
						<time>2026-08-24T10:36:23Z</time>
					</trkpt>
					<trkpt lat="48.566040" lon="-0.498520">
						<ele>211</ele>
						<time>2026-08-24T10:36:37Z</time>
					</trkpt>
					<trkpt lat="48.566190" lon="-0.498530">
						<ele>212</ele>
						<time>2026-08-24T10:36:45Z</time>
					</trkpt>
					<trkpt lat="48.566290" lon="-0.498140">
						<ele>214</ele>
						<time>2026-08-24T10:36:59Z</time>
					</trkpt>
					<trkpt lat="48.566400" lon="-0.498040">
						<ele>215</ele>
						<time>2026-08-24T10:37:05Z</time>
					</trkpt>
					<trkpt lat="48.566450" lon="-0.497880">
						<ele>216</ele>
						<time>2026-08-24T10:37:11Z</time>
					</trkpt>
					<trkpt lat="48.566460" lon="-0.497290">
						<ele>218</ele>
						<time>2026-08-24T10:37:30Z</time>
					</trkpt>
					<trkpt lat="48.566400" lon="-0.496850">
						<ele>218</ele>
						<time>2026-08-24T10:37:45Z</time>
					</trkpt>
					<trkpt lat="48.566140" lon="-0.496830">
						<ele>216</ele>
						<time>2026-08-24T10:37:58Z</time>
					</trkpt>
					<trkpt lat="48.565840" lon="-0.496650">
						<ele>213</ele>
						<time>2026-08-24T10:38:15Z</time>
					</trkpt>
					<trkpt lat="48.565840" lon="-0.496570">
						<ele>213</ele>
						<time>2026-08-24T10:38:17Z</time>
					</trkpt>
					<trkpt lat="48.565830" lon="-0.496440">
						<ele>213</ele>
						<time>2026-08-24T10:38:22Z</time>
					</trkpt>
					<trkpt lat="48.565670" lon="-0.496130">
						<ele>213</ele>
						<time>2026-08-24T10:38:35Z</time>
					</trkpt>
					<trkpt lat="48.565660" lon="-0.496000">
						<ele>213</ele>
						<time>2026-08-24T10:38:39Z</time>
					</trkpt>
					<trkpt lat="48.565590" lon="-0.495900">
						<ele>213</ele>
						<time>2026-08-24T10:38:44Z</time>
					</trkpt>
					<trkpt lat="48.565520" lon="-0.495790">
						<ele>212</ele>
						<time>2026-08-24T10:38:49Z</time>
					</trkpt>
					<trkpt lat="48.565450" lon="-0.495770">
						<ele>212</ele>
						<time>2026-08-24T10:38:52Z</time>
					</trkpt>
					<trkpt lat="48.565440" lon="-0.495730">
						<ele>212</ele>
						<time>2026-08-24T10:38:54Z</time>
					</trkpt>
					<trkpt lat="48.565390" lon="-0.495570">
						<ele>212</ele>
						<time>2026-08-24T10:39:00Z</time>
					</trkpt>
					<trkpt lat="48.565300" lon="-0.495160">
						<ele>213</ele>
						<time>2026-08-24T10:39:14Z</time>
					</trkpt>
					<trkpt lat="48.565260" lon="-0.494790">
						<ele>214</ele>
						<time>2026-08-24T10:39:26Z</time>
					</trkpt>
					<trkpt lat="48.565220" lon="-0.494300">
						<ele>214</ele>
						<time>2026-08-24T10:39:43Z</time>
					</trkpt>
					<trkpt lat="48.565170" lon="-0.493900">
						<ele>212</ele>
						<time>2026-08-24T10:39:56Z</time>
					</trkpt>
					<trkpt lat="48.565050" lon="-0.493450">
						<ele>208</ele>
						<time>2026-08-24T10:40:12Z</time>
					</trkpt>
					<trkpt lat="48.565640" lon="-0.493070">
						<ele>213</ele>
						<time>2026-08-24T10:40:44Z</time>
					</trkpt>
					<trkpt lat="48.566340" lon="-0.492660">
						<ele>220</ele>
						<time>2026-08-24T10:41:22Z</time>
					</trkpt>
					<trkpt lat="48.567180" lon="-0.492150">
						<ele>226</ele>
						<time>2026-08-24T10:42:07Z</time>
					</trkpt>
					<trkpt lat="48.567650" lon="-0.491750">
						<ele>231</ele>
						<time>2026-08-24T10:42:34Z</time>
					</trkpt>
					<trkpt lat="48.568190" lon="-0.491270">
						<ele>241</ele>
						<time>2026-08-24T10:43:05Z</time>
					</trkpt>
					<trkpt lat="48.568750" lon="-0.491080">
						<ele>253</ele>
						<time>2026-08-24T10:43:34Z</time>
					</trkpt>
					<trkpt lat="48.570000" lon="-0.490710">
						<ele>268</ele>
						<time>2026-08-24T10:44:38Z</time>
					</trkpt>
					<trkpt lat="48.570490" lon="-0.490660">
						<ele>265</ele>
						<time>2026-08-24T10:45:03Z</time>
					</trkpt>
					<trkpt lat="48.569780" lon="-0.484070">
						<ele>258</ele>
						<time>2026-08-24T10:48:44Z</time>
					</trkpt>
					<trkpt lat="48.569480" lon="-0.481240">
						<ele>255</ele>
						<time>2026-08-24T10:50:19Z</time>
					</trkpt>
					<trkpt lat="48.569170" lon="-0.478290">
						<ele>261</ele>
						<time>2026-08-24T10:51:57Z</time>
					</trkpt>
					<trkpt lat="48.567980" lon="-0.474310">
						<ele>261</ele>
						<time>2026-08-24T10:54:22Z</time>
					</trkpt>
					<trkpt lat="48.566410" lon="-0.469000">
						<ele>262</ele>
						<time>2026-08-24T10:57:35Z</time>
					</trkpt>
					<trkpt lat="48.565290" lon="-0.463920">
						<ele>251</ele>
						<time>2026-08-24T11:00:32Z</time>
					</trkpt>
					<trkpt lat="48.564970" lon="-0.462630">
						<ele>248</ele>
						<time>2026-08-24T11:01:18Z</time>
					</trkpt>
					<trkpt lat="48.562430" lon="-0.451400">
						<ele>241</ele>
						<time>2026-08-24T11:07:51Z</time>
					</trkpt>
					<trkpt lat="48.561240" lon="-0.446230">
						<ele>240</ele>
						<time>2026-08-24T11:10:52Z</time>
					</trkpt>
					<trkpt lat="48.561250" lon="-0.446080">
						<ele>240</ele>
						<time>2026-08-24T11:10:57Z</time>
					</trkpt>
					<trkpt lat="48.561320" lon="-0.446000">
						<ele>240</ele>
						<time>2026-08-24T11:11:01Z</time>
					</trkpt>
					<trkpt lat="48.562390" lon="-0.444480">
						<ele>240</ele>
						<time>2026-08-24T11:12:15Z</time>
					</trkpt>
					<trkpt lat="48.563390" lon="-0.443050">
						<ele>226</ele>
						<time>2026-08-24T11:13:24Z</time>
					</trkpt>
					<trkpt lat="48.564140" lon="-0.441950">
						<ele>214</ele>
						<time>2026-08-24T11:14:16Z</time>
					</trkpt>
					<trkpt lat="48.565580" lon="-0.439920">
						<ele>204</ele>
						<time>2026-08-24T11:15:55Z</time>
					</trkpt>
					<trkpt lat="48.565670" lon="-0.439850">
						<ele>203</ele>
						<time>2026-08-24T11:16:00Z</time>
					</trkpt>
					<trkpt lat="48.566430" lon="-0.438760">
						<ele>206</ele>
						<time>2026-08-24T11:16:52Z</time>
					</trkpt>
					<trkpt lat="48.566460" lon="-0.438510">
						<ele>206</ele>
						<time>2026-08-24T11:17:00Z</time>
					</trkpt>
					<trkpt lat="48.565980" lon="-0.437050">
						<ele>200</ele>
						<time>2026-08-24T11:17:54Z</time>
					</trkpt>
					<trkpt lat="48.566120" lon="-0.436530">
						<ele>199</ele>
						<time>2026-08-24T11:18:13Z</time>
					</trkpt>
					<trkpt lat="48.567070" lon="-0.436320">
						<ele>208</ele>
						<time>2026-08-24T11:19:01Z</time>
					</trkpt>
					<trkpt lat="48.567080" lon="-0.436320">
						<ele>208</ele>
						<time>2026-08-24T11:19:02Z</time>
					</trkpt>
					<trkpt lat="48.566970" lon="-0.436590">
						<ele>207</ele>
						<time>2026-08-24T11:19:12Z</time>
					</trkpt>
					<trkpt lat="48.566790" lon="-0.436900">
						<ele>206</ele>
						<time>2026-08-24T11:19:26Z</time>
					</trkpt>
					<trkpt lat="48.566650" lon="-0.437270">
						<ele>205</ele>
						<time>2026-08-24T11:19:40Z</time>
					</trkpt>
					<trkpt lat="48.566570" lon="-0.437640">
						<ele>206</ele>
						<time>2026-08-24T11:19:53Z</time>
					</trkpt>
					<trkpt lat="48.566530" lon="-0.437880">
						<ele>206</ele>
						<time>2026-08-24T11:20:01Z</time>
					</trkpt>
					<trkpt lat="48.566580" lon="-0.437960">
						<ele>206</ele>
						<time>2026-08-24T11:20:05Z</time>
					</trkpt>
					<trkpt lat="48.566530" lon="-0.437980">
						<ele>206</ele>
						<time>2026-08-24T11:20:07Z</time>
					</trkpt>
					<trkpt lat="48.566490" lon="-0.438130">
						<ele>206</ele>
						<time>2026-08-24T11:20:13Z</time>
					</trkpt>
					<trkpt lat="48.566480" lon="-0.438360">
						<ele>206</ele>
						<time>2026-08-24T11:20:20Z</time>
					</trkpt>
					<trkpt lat="48.566470" lon="-0.438620">
						<ele>206</ele>
						<time>2026-08-24T11:20:29Z</time>
					</trkpt>
					<trkpt lat="48.566460" lon="-0.438680">
						<ele>206</ele>
						<time>2026-08-24T11:20:31Z</time>
					</trkpt>
					<trkpt lat="48.566440" lon="-0.438730">
						<ele>206</ele>
						<time>2026-08-24T11:20:33Z</time>
					</trkpt>
					<trkpt lat="48.565670" lon="-0.439850">
						<ele>203</ele>
						<time>2026-08-24T11:21:26Z</time>
					</trkpt>
					<trkpt lat="48.565690" lon="-0.439900">
						<ele>203</ele>
						<time>2026-08-24T11:21:28Z</time>
					</trkpt>
					<trkpt lat="48.565680" lon="-0.439990">
						<ele>204</ele>
						<time>2026-08-24T11:21:31Z</time>
					</trkpt>
					<trkpt lat="48.565720" lon="-0.440180">
						<ele>203</ele>
						<time>2026-08-24T11:21:38Z</time>
					</trkpt>
					<trkpt lat="48.565730" lon="-0.440350">
						<ele>203</ele>
						<time>2026-08-24T11:21:43Z</time>
					</trkpt>
					<trkpt lat="48.565770" lon="-0.440530">
						<ele>202</ele>
						<time>2026-08-24T11:21:50Z</time>
					</trkpt>
					<trkpt lat="48.565840" lon="-0.440760">
						<ele>201</ele>
						<time>2026-08-24T11:21:58Z</time>
					</trkpt>
					<trkpt lat="48.565880" lon="-0.440830">
						<ele>202</ele>
						<time>2026-08-24T11:22:01Z</time>
					</trkpt>
					<trkpt lat="48.565900" lon="-0.440960">
						<ele>202</ele>
						<time>2026-08-24T11:22:06Z</time>
					</trkpt>
					<trkpt lat="48.565960" lon="-0.441050">
						<ele>202</ele>
						<time>2026-08-24T11:22:10Z</time>
					</trkpt>
					<trkpt lat="48.565950" lon="-0.441230">
						<ele>202</ele>
						<time>2026-08-24T11:22:16Z</time>
					</trkpt>
					<trkpt lat="48.566060" lon="-0.441350">
						<ele>203</ele>
						<time>2026-08-24T11:22:23Z</time>
					</trkpt>
					<trkpt lat="48.566130" lon="-0.441600">
						<ele>203</ele>
						<time>2026-08-24T11:22:32Z</time>
					</trkpt>
					<trkpt lat="48.566160" lon="-0.441760">
						<ele>204</ele>
						<time>2026-08-24T11:22:37Z</time>
					</trkpt>
					<trkpt lat="48.566230" lon="-0.442020">
						<ele>204</ele>
						<time>2026-08-24T11:22:46Z</time>
					</trkpt>
					<trkpt lat="48.566260" lon="-0.442190">
						<ele>204</ele>
						<time>2026-08-24T11:22:52Z</time>
					</trkpt>
					<trkpt lat="48.566320" lon="-0.442350">
						<ele>205</ele>
						<time>2026-08-24T11:22:58Z</time>
					</trkpt>
					<trkpt lat="48.566370" lon="-0.442420">
						<ele>205</ele>
						<time>2026-08-24T11:23:02Z</time>
					</trkpt>
					<trkpt lat="48.566400" lon="-0.442540">
						<ele>205</ele>
						<time>2026-08-24T11:23:06Z</time>
					</trkpt>
					<trkpt lat="48.566410" lon="-0.442680">
						<ele>205</ele>
						<time>2026-08-24T11:23:11Z</time>
					</trkpt>
					<trkpt lat="48.566440" lon="-0.442980">
						<ele>205</ele>
						<time>2026-08-24T11:23:21Z</time>
					</trkpt>
					<trkpt lat="48.566460" lon="-0.443190">
						<ele>205</ele>
						<time>2026-08-24T11:23:28Z</time>
					</trkpt>
					<trkpt lat="48.566500" lon="-0.443370">
						<ele>205</ele>
						<time>2026-08-24T11:23:34Z</time>
					</trkpt>
					<trkpt lat="48.566500" lon="-0.443500">
						<ele>205</ele>
						<time>2026-08-24T11:23:38Z</time>
					</trkpt>
					<trkpt lat="48.566500" lon="-0.443700">
						<ele>204</ele>
						<time>2026-08-24T11:23:45Z</time>
					</trkpt>
					<trkpt lat="48.566510" lon="-0.443800">
						<ele>204</ele>
						<time>2026-08-24T11:23:48Z</time>
					</trkpt>
					<trkpt lat="48.566520" lon="-0.444090">
						<ele>204</ele>
						<time>2026-08-24T11:23:58Z</time>
					</trkpt>
					<trkpt lat="48.566500" lon="-0.444300">
						<ele>204</ele>
						<time>2026-08-24T11:24:05Z</time>
					</trkpt>
					<trkpt lat="48.566560" lon="-0.444370">
						<ele>205</ele>
						<time>2026-08-24T11:24:09Z</time>
					</trkpt>
					<trkpt lat="48.566820" lon="-0.444230">
						<ele>206</ele>
						<time>2026-08-24T11:24:23Z</time>
					</trkpt>
					<trkpt lat="48.566890" lon="-0.444300">
						<ele>206</ele>
						<time>2026-08-24T11:24:27Z</time>
					</trkpt>
					<trkpt lat="48.566920" lon="-0.444470">
						<ele>206</ele>
						<time>2026-08-24T11:24:33Z</time>
					</trkpt>
					<trkpt lat="48.566980" lon="-0.444520">
						<ele>206</ele>
						<time>2026-08-24T11:24:36Z</time>
					</trkpt>
					<trkpt lat="48.567100" lon="-0.444540">
						<ele>206</ele>
						<time>2026-08-24T11:24:42Z</time>
					</trkpt>
					<trkpt lat="48.567200" lon="-0.444440">
						<ele>207</ele>
						<time>2026-08-24T11:24:48Z</time>
					</trkpt>
					<trkpt lat="48.567250" lon="-0.444410">
						<ele>207</ele>
						<time>2026-08-24T11:24:51Z</time>
					</trkpt>
					<trkpt lat="48.567330" lon="-0.444460">
						<ele>207</ele>
						<time>2026-08-24T11:24:55Z</time>
					</trkpt>
					<trkpt lat="48.567370" lon="-0.444610">
						<ele>207</ele>
						<time>2026-08-24T11:25:00Z</time>
					</trkpt>
					<trkpt lat="48.567440" lon="-0.444610">
						<ele>207</ele>
						<time>2026-08-24T11:25:04Z</time>
					</trkpt>
					<trkpt lat="48.567460" lon="-0.444670">
						<ele>207</ele>
						<time>2026-08-24T11:25:06Z</time>
					</trkpt>
					<trkpt lat="48.567460" lon="-0.444840">
						<ele>207</ele>
						<time>2026-08-24T11:25:12Z</time>
					</trkpt>
					<trkpt lat="48.567540" lon="-0.444880">
						<ele>207</ele>
						<time>2026-08-24T11:25:16Z</time>
					</trkpt>
					<trkpt lat="48.567640" lon="-0.444900">
						<ele>207</ele>
						<time>2026-08-24T11:25:21Z</time>
					</trkpt>
					<trkpt lat="48.567730" lon="-0.444950">
						<ele>208</ele>
						<time>2026-08-24T11:25:26Z</time>
					</trkpt>
					<trkpt lat="48.567850" lon="-0.444970">
						<ele>208</ele>
						<time>2026-08-24T11:25:32Z</time>
					</trkpt>
					<trkpt lat="48.567920" lon="-0.445110">
						<ele>208</ele>
						<time>2026-08-24T11:25:38Z</time>
					</trkpt>
					<trkpt lat="48.568110" lon="-0.445060">
						<ele>209</ele>
						<time>2026-08-24T11:25:47Z</time>
					</trkpt>
					<trkpt lat="48.568230" lon="-0.445130">
						<ele>209</ele>
						<time>2026-08-24T11:25:54Z</time>
					</trkpt>
					<trkpt lat="48.568380" lon="-0.445300">
						<ele>209</ele>
						<time>2026-08-24T11:26:03Z</time>
					</trkpt>
					<trkpt lat="48.568510" lon="-0.445310">
						<ele>210</ele>
						<time>2026-08-24T11:26:10Z</time>
					</trkpt>
					<trkpt lat="48.568620" lon="-0.445350">
						<ele>211</ele>
						<time>2026-08-24T11:26:15Z</time>
					</trkpt>
					<trkpt lat="48.568800" lon="-0.445850">
						<ele>209</ele>
						<time>2026-08-24T11:26:34Z</time>
					</trkpt>
					<trkpt lat="48.568870" lon="-0.445990">
						<ele>210</ele>
						<time>2026-08-24T11:26:40Z</time>
					</trkpt>
					<trkpt lat="48.568960" lon="-0.446100">
						<ele>210</ele>
						<time>2026-08-24T11:26:46Z</time>
					</trkpt>
					<trkpt lat="48.568990" lon="-0.446230">
						<ele>210</ele>
						<time>2026-08-24T11:26:50Z</time>
					</trkpt>
					<trkpt lat="48.569050" lon="-0.446290">
						<ele>210</ele>
						<time>2026-08-24T11:26:54Z</time>
					</trkpt>
					<trkpt lat="48.569170" lon="-0.446530">
						<ele>210</ele>
						<time>2026-08-24T11:27:04Z</time>
					</trkpt>
					<trkpt lat="48.569270" lon="-0.446820">
						<ele>209</ele>
						<time>2026-08-24T11:27:15Z</time>
					</trkpt>
					<trkpt lat="48.569320" lon="-0.446900">
						<ele>210</ele>
						<time>2026-08-24T11:27:18Z</time>
					</trkpt>
					<trkpt lat="48.569400" lon="-0.447130">
						<ele>210</ele>
						<time>2026-08-24T11:27:27Z</time>
					</trkpt>
					<trkpt lat="48.569430" lon="-0.447170">
						<ele>210</ele>
						<time>2026-08-24T11:27:29Z</time>
					</trkpt>
					<trkpt lat="48.569490" lon="-0.447320">
						<ele>210</ele>
						<time>2026-08-24T11:27:35Z</time>
					</trkpt>
					<trkpt lat="48.569510" lon="-0.447420">
						<ele>210</ele>
						<time>2026-08-24T11:27:38Z</time>
					</trkpt>
					<trkpt lat="48.569610" lon="-0.447710">
						<ele>211</ele>
						<time>2026-08-24T11:27:49Z</time>
					</trkpt>
					<trkpt lat="48.569720" lon="-0.448000">
						<ele>212</ele>
						<time>2026-08-24T11:28:00Z</time>
					</trkpt>
					<trkpt lat="48.569780" lon="-0.448200">
						<ele>213</ele>
						<time>2026-08-24T11:28:07Z</time>
					</trkpt>
					<trkpt lat="48.569830" lon="-0.448270">
						<ele>214</ele>
						<time>2026-08-24T11:28:11Z</time>
					</trkpt>
					<trkpt lat="48.569920" lon="-0.448550">
						<ele>217</ele>
						<time>2026-08-24T11:28:21Z</time>
					</trkpt>
					<trkpt lat="48.570030" lon="-0.448830">
						<ele>221</ele>
						<time>2026-08-24T11:28:32Z</time>
					</trkpt>
					<trkpt lat="48.570070" lon="-0.448900">
						<ele>222</ele>
						<time>2026-08-24T11:28:35Z</time>
					</trkpt>
					<trkpt lat="48.570110" lon="-0.449010">
						<ele>224</ele>
						<time>2026-08-24T11:28:39Z</time>
					</trkpt>
					<trkpt lat="48.570160" lon="-0.449090">
						<ele>225</ele>
						<time>2026-08-24T11:28:43Z</time>
					</trkpt>
					<trkpt lat="48.570430" lon="-0.449360">
						<ele>228</ele>
						<time>2026-08-24T11:28:59Z</time>
					</trkpt>
					<trkpt lat="48.570540" lon="-0.449480">
						<ele>229</ele>
						<time>2026-08-24T11:29:06Z</time>
					</trkpt>
					<trkpt lat="48.570620" lon="-0.449610">
						<ele>230</ele>
						<time>2026-08-24T11:29:12Z</time>
					</trkpt>
					<trkpt lat="48.570680" lon="-0.449830">
						<ele>231</ele>
						<time>2026-08-24T11:29:20Z</time>
					</trkpt>
					<trkpt lat="48.570770" lon="-0.450060">
						<ele>231</ele>
						<time>2026-08-24T11:29:28Z</time>
					</trkpt>
					<trkpt lat="48.570910" lon="-0.450270">
						<ele>233</ele>
						<time>2026-08-24T11:29:38Z</time>
					</trkpt>
					<trkpt lat="48.571090" lon="-0.450430">
						<ele>235</ele>
						<time>2026-08-24T11:29:49Z</time>
					</trkpt>
					<trkpt lat="48.571160" lon="-0.450580">
						<ele>235</ele>
						<time>2026-08-24T11:29:55Z</time>
					</trkpt>
					<trkpt lat="48.571210" lon="-0.450600">
						<ele>236</ele>
						<time>2026-08-24T11:29:57Z</time>
					</trkpt>
					<trkpt lat="48.571290" lon="-0.450590">
						<ele>237</ele>
						<time>2026-08-24T11:30:01Z</time>
					</trkpt>
					<trkpt lat="48.571160" lon="-0.451310">
						<ele>236</ele>
						<time>2026-08-24T11:30:26Z</time>
					</trkpt>
					<trkpt lat="48.571110" lon="-0.451660">
						<ele>237</ele>
						<time>2026-08-24T11:30:38Z</time>
					</trkpt>
					<trkpt lat="48.571040" lon="-0.451920">
						<ele>236</ele>
						<time>2026-08-24T11:30:47Z</time>
					</trkpt>
					<trkpt lat="48.571000" lon="-0.452280">
						<ele>236</ele>
						<time>2026-08-24T11:30:59Z</time>
					</trkpt>
					<trkpt lat="48.571000" lon="-0.452560">
						<ele>236</ele>
						<time>2026-08-24T11:31:09Z</time>
					</trkpt>
					<trkpt lat="48.571070" lon="-0.453080">
						<ele>235</ele>
						<time>2026-08-24T11:31:26Z</time>
					</trkpt>
					<trkpt lat="48.571150" lon="-0.453340">
						<ele>235</ele>
						<time>2026-08-24T11:31:36Z</time>
					</trkpt>
					<trkpt lat="48.571340" lon="-0.453460">
						<ele>237</ele>
						<time>2026-08-24T11:31:46Z</time>
					</trkpt>
					<trkpt lat="48.571600" lon="-0.453820">
						<ele>239</ele>
						<time>2026-08-24T11:32:04Z</time>
					</trkpt>
					<trkpt lat="48.571810" lon="-0.453700">
						<ele>242</ele>
						<time>2026-08-24T11:32:15Z</time>
					</trkpt>
					<trkpt lat="48.572060" lon="-0.453780">
						<ele>244</ele>
						<time>2026-08-24T11:32:28Z</time>
					</trkpt>
					<trkpt lat="48.572270" lon="-0.454040">
						<ele>246</ele>
						<time>2026-08-24T11:32:41Z</time>
					</trkpt>
					<trkpt lat="48.572410" lon="-0.454350">
						<ele>247</ele>
						<time>2026-08-24T11:32:54Z</time>
					</trkpt>
					<trkpt lat="48.572600" lon="-0.454400">
						<ele>249</ele>
						<time>2026-08-24T11:33:03Z</time>
					</trkpt>
					<trkpt lat="48.572720" lon="-0.454300">
						<ele>250</ele>
						<time>2026-08-24T11:33:10Z</time>
					</trkpt>
					<trkpt lat="48.572990" lon="-0.455050">
						<ele>250</ele>
						<time>2026-08-24T11:33:38Z</time>
					</trkpt>
					<trkpt lat="48.573150" lon="-0.455380">
						<ele>250</ele>
						<time>2026-08-24T11:33:52Z</time>
					</trkpt>
					<trkpt lat="48.573280" lon="-0.455990">
						<ele>250</ele>
						<time>2026-08-24T11:34:13Z</time>
					</trkpt>
					<trkpt lat="48.573470" lon="-0.456120">
						<ele>250</ele>
						<time>2026-08-24T11:34:24Z</time>
					</trkpt>
					<trkpt lat="48.573620" lon="-0.456370">
						<ele>250</ele>
						<time>2026-08-24T11:34:35Z</time>
					</trkpt>
					<trkpt lat="48.573690" lon="-0.456740">
						<ele>249</ele>
						<time>2026-08-24T11:34:48Z</time>
					</trkpt>
					<trkpt lat="48.573870" lon="-0.456990">
						<ele>249</ele>
						<time>2026-08-24T11:35:00Z</time>
					</trkpt>
					<trkpt lat="48.574020" lon="-0.457330">
						<ele>248</ele>
						<time>2026-08-24T11:35:13Z</time>
					</trkpt>
					<trkpt lat="48.574160" lon="-0.457720">
						<ele>248</ele>
						<time>2026-08-24T11:35:28Z</time>
					</trkpt>
					<trkpt lat="48.574260" lon="-0.458130">
						<ele>246</ele>
						<time>2026-08-24T11:35:42Z</time>
					</trkpt>
					<trkpt lat="48.574470" lon="-0.458410">
						<ele>248</ele>
						<time>2026-08-24T11:35:57Z</time>
					</trkpt>
					<trkpt lat="48.574520" lon="-0.458790">
						<ele>247</ele>
						<time>2026-08-24T11:36:09Z</time>
					</trkpt>
					<trkpt lat="48.574650" lon="-0.459050">
						<ele>248</ele>
						<time>2026-08-24T11:36:20Z</time>
					</trkpt>
					<trkpt lat="48.574670" lon="-0.459210">
						<ele>248</ele>
						<time>2026-08-24T11:36:26Z</time>
					</trkpt>
					<trkpt lat="48.574410" lon="-0.459580">
						<ele>244</ele>
						<time>2026-08-24T11:36:43Z</time>
					</trkpt>
					<trkpt lat="48.574510" lon="-0.459970">
						<ele>245</ele>
						<time>2026-08-24T11:36:57Z</time>
					</trkpt>
					<trkpt lat="48.574450" lon="-0.460190">
						<ele>244</ele>
						<time>2026-08-24T11:37:05Z</time>
					</trkpt>
					<trkpt lat="48.574550" lon="-0.460440">
						<ele>245</ele>
						<time>2026-08-24T11:37:15Z</time>
					</trkpt>
					<trkpt lat="48.574670" lon="-0.460690">
						<ele>246</ele>
						<time>2026-08-24T11:37:25Z</time>
					</trkpt>
					<trkpt lat="48.574830" lon="-0.461270">
						<ele>248</ele>
						<time>2026-08-24T11:37:46Z</time>
					</trkpt>
					<trkpt lat="48.575000" lon="-0.461560">
						<ele>251</ele>
						<time>2026-08-24T11:37:59Z</time>
					</trkpt>
					<trkpt lat="48.575440" lon="-0.461130">
						<ele>256</ele>
						<time>2026-08-24T11:38:25Z</time>
					</trkpt>
					<trkpt lat="48.575590" lon="-0.461430">
						<ele>259</ele>
						<time>2026-08-24T11:38:37Z</time>
					</trkpt>
					<trkpt lat="48.575590" lon="-0.461880">
						<ele>259</ele>
						<time>2026-08-24T11:38:52Z</time>
					</trkpt>
					<trkpt lat="48.575700" lon="-0.462370">
						<ele>259</ele>
						<time>2026-08-24T11:39:09Z</time>
					</trkpt>
					<trkpt lat="48.575800" lon="-0.463020">
						<ele>259</ele>
						<time>2026-08-24T11:39:31Z</time>
					</trkpt>
					<trkpt lat="48.575870" lon="-0.463220">
						<ele>259</ele>
						<time>2026-08-24T11:39:39Z</time>
					</trkpt>
					<trkpt lat="48.576000" lon="-0.463450">
						<ele>259</ele>
						<time>2026-08-24T11:39:49Z</time>
					</trkpt>
					<trkpt lat="48.576270" lon="-0.463660">
						<ele>260</ele>
						<time>2026-08-24T11:40:04Z</time>
					</trkpt>
					<trkpt lat="48.576400" lon="-0.464110">
						<ele>260</ele>
						<time>2026-08-24T11:40:20Z</time>
					</trkpt>
					<trkpt lat="48.576330" lon="-0.464470">
						<ele>260</ele>
						<time>2026-08-24T11:40:33Z</time>
					</trkpt>
					<trkpt lat="48.576380" lon="-0.464700">
						<ele>259</ele>
						<time>2026-08-24T11:40:41Z</time>
					</trkpt>
					<trkpt lat="48.576150" lon="-0.464940">
						<ele>257</ele>
						<time>2026-08-24T11:40:55Z</time>
					</trkpt>
					<trkpt lat="48.576390" lon="-0.465500">
						<ele>258</ele>
						<time>2026-08-24T11:41:17Z</time>
					</trkpt>
					<trkpt lat="48.576450" lon="-0.465310">
						<ele>259</ele>
						<time>2026-08-24T11:41:24Z</time>
					</trkpt>
					<trkpt lat="48.577060" lon="-0.464150">
						<ele>260</ele>
						<time>2026-08-24T11:42:13Z</time>
					</trkpt>
					<trkpt lat="48.577230" lon="-0.463850">
						<ele>258</ele>
						<time>2026-08-24T11:42:26Z</time>
					</trkpt>
					<trkpt lat="48.577230" lon="-0.463850">
						<ele>258</ele>
						<time>2026-08-24T11:42:26Z</time>
					</trkpt>
					<trkpt lat="48.580880" lon="-0.457290">
						<ele>231</ele>
						<time>2026-08-24T11:47:10Z</time>
					</trkpt>
					<trkpt lat="48.578260" lon="-0.450530">
						<ele>222</ele>
						<time>2026-08-24T11:51:29Z</time>
					</trkpt>
					<trkpt lat="48.577150" lon="-0.447740">
						<ele>230</ele>
						<time>2026-08-24T11:53:17Z</time>
					</trkpt>
					<trkpt lat="48.576700" lon="-0.446550">
						<ele>231</ele>
						<time>2026-08-24T11:54:02Z</time>
					</trkpt>
					<trkpt lat="48.578690" lon="-0.444780">
						<ele>224</ele>
						<time>2026-08-24T11:55:58Z</time>
					</trkpt>
					<trkpt lat="48.580740" lon="-0.443020">
						<ele>240</ele>
						<time>2026-08-24T11:57:56Z</time>
					</trkpt>
					<trkpt lat="48.581620" lon="-0.442240">
						<ele>240</ele>
						<time>2026-08-24T11:58:47Z</time>
					</trkpt>
					<trkpt lat="48.580620" lon="-0.440700">
						<ele>237</ele>
						<time>2026-08-24T11:59:58Z</time>
					</trkpt>
					<trkpt lat="48.580370" lon="-0.440320">
						<ele>235</ele>
						<time>2026-08-24T12:00:16Z</time>
					</trkpt>
					<trkpt lat="48.579260" lon="-0.438600">
						<ele>229</ele>
						<time>2026-08-24T12:01:36Z</time>
					</trkpt>
					<trkpt lat="48.578770" lon="-0.437840">
						<ele>226</ele>
						<time>2026-08-24T12:02:11Z</time>
					</trkpt>
					<trkpt lat="48.577190" lon="-0.435310">
						<ele>221</ele>
						<time>2026-08-24T12:04:06Z</time>
					</trkpt>
					<trkpt lat="48.576620" lon="-0.434460">
						<ele>224</ele>
						<time>2026-08-24T12:04:46Z</time>
					</trkpt>
					<trkpt lat="48.574620" lon="-0.431380">
						<ele>221</ele>
						<time>2026-08-24T12:07:09Z</time>
					</trkpt>
					<trkpt lat="48.574130" lon="-0.430710">
						<ele>218</ele>
						<time>2026-08-24T12:07:42Z</time>
					</trkpt>
					<trkpt lat="48.573430" lon="-0.429650">
						<ele>216</ele>
						<time>2026-08-24T12:08:32Z</time>
					</trkpt>
					<trkpt lat="48.573000" lon="-0.429000">
						<ele>216</ele>
						<time>2026-08-24T12:09:02Z</time>
					</trkpt>
					<trkpt lat="48.572920" lon="-0.428910">
						<ele>216</ele>
						<time>2026-08-24T12:09:07Z</time>
					</trkpt>
					<trkpt lat="48.572900" lon="-0.428870">
						<ele>216</ele>
						<time>2026-08-24T12:09:09Z</time>
					</trkpt>
					<trkpt lat="48.572890" lon="-0.428840">
						<ele>216</ele>
						<time>2026-08-24T12:09:10Z</time>
					</trkpt>
					<trkpt lat="48.572600" lon="-0.428440">
						<ele>216</ele>
						<time>2026-08-24T12:09:29Z</time>
					</trkpt>
					<trkpt lat="48.572250" lon="-0.428050">
						<ele>216</ele>
						<time>2026-08-24T12:09:51Z</time>
					</trkpt>
					<trkpt lat="48.571530" lon="-0.427930">
						<ele>216</ele>
						<time>2026-08-24T12:10:27Z</time>
					</trkpt>
					<trkpt lat="48.571030" lon="-0.427810">
						<ele>216</ele>
						<time>2026-08-24T12:10:53Z</time>
					</trkpt>
					<trkpt lat="48.570690" lon="-0.427730">
						<ele>217</ele>
						<time>2026-08-24T12:11:10Z</time>
					</trkpt>
					<trkpt lat="48.570680" lon="-0.427680">
						<ele>217</ele>
						<time>2026-08-24T12:11:12Z</time>
					</trkpt>
					<trkpt lat="48.570230" lon="-0.426880">
						<ele>216</ele>
						<time>2026-08-24T12:11:47Z</time>
					</trkpt>
					<trkpt lat="48.569690" lon="-0.425900">
						<ele>215</ele>
						<time>2026-08-24T12:12:29Z</time>
					</trkpt>
					<trkpt lat="48.569680" lon="-0.425710">
						<ele>214</ele>
						<time>2026-08-24T12:12:35Z</time>
					</trkpt>
					<trkpt lat="48.569960" lon="-0.423740">
						<ele>209</ele>
						<time>2026-08-24T12:13:42Z</time>
					</trkpt>
					<trkpt lat="48.570750" lon="-0.418470">
						<ele>192</ele>
						<time>2026-08-24T12:16:41Z</time>
					</trkpt>
					<trkpt lat="48.571100" lon="-0.417910">
						<ele>190</ele>
						<time>2026-08-24T12:17:06Z</time>
					</trkpt>
					<trkpt lat="48.571270" lon="-0.417490">
						<ele>188</ele>
						<time>2026-08-24T12:17:22Z</time>
					</trkpt>
					<trkpt lat="48.571430" lon="-0.416830">
						<ele>189</ele>
						<time>2026-08-24T12:17:46Z</time>
					</trkpt>
					<trkpt lat="48.571490" lon="-0.416410">
						<ele>189</ele>
						<time>2026-08-24T12:18:00Z</time>
					</trkpt>
					<trkpt lat="48.571520" lon="-0.415970">
						<ele>188</ele>
						<time>2026-08-24T12:18:15Z</time>
					</trkpt>
					<trkpt lat="48.571900" lon="-0.415010">
						<ele>188</ele>
						<time>2026-08-24T12:18:52Z</time>
					</trkpt>
					<trkpt lat="48.571900" lon="-0.414840">
						<ele>189</ele>
						<time>2026-08-24T12:18:57Z</time>
					</trkpt>
					<trkpt lat="48.571870" lon="-0.414680">
						<ele>190</ele>
						<time>2026-08-24T12:19:03Z</time>
					</trkpt>
					<trkpt lat="48.571840" lon="-0.414590">
						<ele>190</ele>
						<time>2026-08-24T12:19:06Z</time>
					</trkpt>
					<trkpt lat="48.571640" lon="-0.414200">
						<ele>193</ele>
						<time>2026-08-24T12:19:23Z</time>
					</trkpt>
					<trkpt lat="48.571540" lon="-0.414060">
						<ele>194</ele>
						<time>2026-08-24T12:19:29Z</time>
					</trkpt>
					<trkpt lat="48.571430" lon="-0.413850">
						<ele>196</ele>
						<time>2026-08-24T12:19:38Z</time>
					</trkpt>
					<trkpt lat="48.571360" lon="-0.413650">
						<ele>197</ele>
						<time>2026-08-24T12:19:46Z</time>
					</trkpt>
					<trkpt lat="48.571130" lon="-0.413430">
						<ele>198</ele>
						<time>2026-08-24T12:19:59Z</time>
					</trkpt>
					<trkpt lat="48.571130" lon="-0.413350">
						<ele>199</ele>
						<time>2026-08-24T12:20:02Z</time>
					</trkpt>
					<trkpt lat="48.571090" lon="-0.413220">
						<ele>199</ele>
						<time>2026-08-24T12:20:07Z</time>
					</trkpt>
					<trkpt lat="48.569860" lon="-0.410940">
						<ele>203</ele>
						<time>2026-08-24T12:21:44Z</time>
					</trkpt>
					<trkpt lat="48.573350" lon="-0.406610">
						<ele>201</ele>
						<time>2026-08-24T12:25:30Z</time>
					</trkpt>
					<trkpt lat="48.573720" lon="-0.407270">
						<ele>198</ele>
						<time>2026-08-24T12:25:59Z</time>
					</trkpt>
					<trkpt lat="48.573860" lon="-0.407260">
						<ele>198</ele>
						<time>2026-08-24T12:26:06Z</time>
					</trkpt>
					<trkpt lat="48.574010" lon="-0.407150">
						<ele>200</ele>
						<time>2026-08-24T12:26:14Z</time>
					</trkpt>
					<trkpt lat="48.576320" lon="-0.404280">
						<ele>211</ele>
						<time>2026-08-24T12:28:44Z</time>
					</trkpt>
					<trkpt lat="48.577290" lon="-0.405530">
						<ele>213</ele>
						<time>2026-08-24T12:29:48Z</time>
					</trkpt>
					<trkpt lat="48.577350" lon="-0.405560">
						<ele>213</ele>
						<time>2026-08-24T12:29:51Z</time>
					</trkpt>
					<trkpt lat="48.577590" lon="-0.405530">
						<ele>213</ele>
						<time>2026-08-24T12:30:03Z</time>
					</trkpt>
					<trkpt lat="48.579530" lon="-0.404870">
						<ele>213</ele>
						<time>2026-08-24T12:31:42Z</time>
					</trkpt>
					<trkpt lat="48.579540" lon="-0.404670">
						<ele>214</ele>
						<time>2026-08-24T12:31:49Z</time>
					</trkpt>
					<trkpt lat="48.579590" lon="-0.404550">
						<ele>214</ele>
						<time>2026-08-24T12:31:54Z</time>
					</trkpt>
					<trkpt lat="48.579720" lon="-0.404140">
						<ele>216</ele>
						<time>2026-08-24T12:32:09Z</time>
					</trkpt>
					<trkpt lat="48.579950" lon="-0.402500">
						<ele>221</ele>
						<time>2026-08-24T12:33:04Z</time>
					</trkpt>
					<trkpt lat="48.580010" lon="-0.401910">
						<ele>224</ele>
						<time>2026-08-24T12:33:24Z</time>
					</trkpt>
					<trkpt lat="48.580030" lon="-0.401440">
						<ele>225</ele>
						<time>2026-08-24T12:33:39Z</time>
					</trkpt>
					<trkpt lat="48.580030" lon="-0.400980">
						<ele>226</ele>
						<time>2026-08-24T12:33:55Z</time>
					</trkpt>
					<trkpt lat="48.579880" lon="-0.400150">
						<ele>227</ele>
						<time>2026-08-24T12:34:23Z</time>
					</trkpt>
					<trkpt lat="48.579780" lon="-0.399920">
						<ele>227</ele>
						<time>2026-08-24T12:34:32Z</time>
					</trkpt>
					<trkpt lat="48.579740" lon="-0.399710">
						<ele>227</ele>
						<time>2026-08-24T12:34:40Z</time>
					</trkpt>
					<trkpt lat="48.579330" lon="-0.398580">
						<ele>230</ele>
						<time>2026-08-24T12:35:22Z</time>
					</trkpt>
					<trkpt lat="48.579210" lon="-0.398480">
						<ele>230</ele>
						<time>2026-08-24T12:35:29Z</time>
					</trkpt>
					<trkpt lat="48.579090" lon="-0.398180">
						<ele>230</ele>
						<time>2026-08-24T12:35:41Z</time>
					</trkpt>
					<trkpt lat="48.579060" lon="-0.397950">
						<ele>230</ele>
						<time>2026-08-24T12:35:48Z</time>
					</trkpt>
					<trkpt lat="48.578800" lon="-0.397470">
						<ele>230</ele>
						<time>2026-08-24T12:36:09Z</time>
					</trkpt>
					<trkpt lat="48.578740" lon="-0.397260">
						<ele>231</ele>
						<time>2026-08-24T12:36:17Z</time>
					</trkpt>
					<trkpt lat="48.578570" lon="-0.397000">
						<ele>232</ele>
						<time>2026-08-24T12:36:29Z</time>
					</trkpt>
					<trkpt lat="48.578480" lon="-0.396810">
						<ele>233</ele>
						<time>2026-08-24T12:36:36Z</time>
					</trkpt>
					<trkpt lat="48.578410" lon="-0.396510">
						<ele>233</ele>
						<time>2026-08-24T12:36:47Z</time>
					</trkpt>
					<trkpt lat="48.578380" lon="-0.396220">
						<ele>233</ele>
						<time>2026-08-24T12:36:57Z</time>
					</trkpt>
					<trkpt lat="48.578320" lon="-0.395890">
						<ele>232</ele>
						<time>2026-08-24T12:37:08Z</time>
					</trkpt>
					<trkpt lat="48.578250" lon="-0.395650">
						<ele>231</ele>
						<time>2026-08-24T12:37:17Z</time>
					</trkpt>
					<trkpt lat="48.578100" lon="-0.395360">
						<ele>230</ele>
						<time>2026-08-24T12:37:29Z</time>
					</trkpt>
					<trkpt lat="48.577690" lon="-0.394890">
						<ele>230</ele>
						<time>2026-08-24T12:37:55Z</time>
					</trkpt>
					<trkpt lat="48.577530" lon="-0.394570">
						<ele>232</ele>
						<time>2026-08-24T12:38:08Z</time>
					</trkpt>
					<trkpt lat="48.577400" lon="-0.394150">
						<ele>234</ele>
						<time>2026-08-24T12:38:23Z</time>
					</trkpt>
					<trkpt lat="48.577100" lon="-0.393360">
						<ele>236</ele>
						<time>2026-08-24T12:38:53Z</time>
					</trkpt>
					<trkpt lat="48.577090" lon="-0.393150">
						<ele>237</ele>
						<time>2026-08-24T12:39:00Z</time>
					</trkpt>
					<trkpt lat="48.577050" lon="-0.393080">
						<ele>236</ele>
						<time>2026-08-24T12:39:03Z</time>
					</trkpt>
					<trkpt lat="48.576970" lon="-0.392960">
						<ele>235</ele>
						<time>2026-08-24T12:39:09Z</time>
					</trkpt>
					<trkpt lat="48.576950" lon="-0.392810">
						<ele>235</ele>
						<time>2026-08-24T12:39:14Z</time>
					</trkpt>
					<trkpt lat="48.576820" lon="-0.392430">
						<ele>233</ele>
						<time>2026-08-24T12:39:28Z</time>
					</trkpt>
					<trkpt lat="48.576630" lon="-0.392100">
						<ele>229</ele>
						<time>2026-08-24T12:39:43Z</time>
					</trkpt>
					<trkpt lat="48.576620" lon="-0.392350">
						<ele>230</ele>
						<time>2026-08-24T12:39:51Z</time>
					</trkpt>
					<trkpt lat="48.576550" lon="-0.392820">
						<ele>230</ele>
						<time>2026-08-24T12:40:07Z</time>
					</trkpt>
					<trkpt lat="48.576560" lon="-0.393100">
						<ele>231</ele>
						<time>2026-08-24T12:40:16Z</time>
					</trkpt>
					<trkpt lat="48.576550" lon="-0.393540">
						<ele>231</ele>
						<time>2026-08-24T12:40:31Z</time>
					</trkpt>
					<trkpt lat="48.576650" lon="-0.394200">
						<ele>229</ele>
						<time>2026-08-24T12:40:53Z</time>
					</trkpt>
					<trkpt lat="48.577020" lon="-0.395740">
						<ele>225</ele>
						<time>2026-08-24T12:41:48Z</time>
					</trkpt>
					<trkpt lat="48.577420" lon="-0.396350">
						<ele>230</ele>
						<time>2026-08-24T12:42:16Z</time>
					</trkpt>
					<trkpt lat="48.577560" lon="-0.396830">
						<ele>233</ele>
						<time>2026-08-24T12:42:33Z</time>
					</trkpt>
					<trkpt lat="48.577880" lon="-0.397600">
						<ele>231</ele>
						<time>2026-08-24T12:43:03Z</time>
					</trkpt>
					<trkpt lat="48.578450" lon="-0.398310">
						<ele>230</ele>
						<time>2026-08-24T12:43:40Z</time>
					</trkpt>
					<trkpt lat="48.578610" lon="-0.398680">
						<ele>229</ele>
						<time>2026-08-24T12:43:55Z</time>
					</trkpt>
					<trkpt lat="48.575730" lon="-0.402140">
						<ele>207</ele>
						<time>2026-08-24T12:46:59Z</time>
					</trkpt>
					<trkpt lat="48.572230" lon="-0.395960">
						<ele>201</ele>
						<time>2026-08-24T12:51:28Z</time>
					</trkpt>
					<trkpt lat="48.571750" lon="-0.396340">
						<ele>203</ele>
						<time>2026-08-24T12:51:56Z</time>
					</trkpt>
					<trkpt lat="48.571320" lon="-0.396770">
						<ele>205</ele>
						<time>2026-08-24T12:52:21Z</time>
					</trkpt>
					<trkpt lat="48.571260" lon="-0.396970">
						<ele>206</ele>
						<time>2026-08-24T12:52:29Z</time>
					</trkpt>
					<trkpt lat="48.571140" lon="-0.397830">
						<ele>206</ele>
						<time>2026-08-24T12:52:58Z</time>
					</trkpt>
					<trkpt lat="48.571000" lon="-0.398440">
						<ele>205</ele>
						<time>2026-08-24T12:53:19Z</time>
					</trkpt>
					<trkpt lat="48.570750" lon="-0.399220">
						<ele>204</ele>
						<time>2026-08-24T12:53:48Z</time>
					</trkpt>
					<trkpt lat="48.570700" lon="-0.399300">
						<ele>204</ele>
						<time>2026-08-24T12:53:51Z</time>
					</trkpt>
					<trkpt lat="48.570600" lon="-0.399300">
						<ele>204</ele>
						<time>2026-08-24T12:53:56Z</time>
					</trkpt>
					<trkpt lat="48.570480" lon="-0.399300">
						<ele>204</ele>
						<time>2026-08-24T12:54:03Z</time>
					</trkpt>
					<trkpt lat="48.570140" lon="-0.400010">
						<ele>201</ele>
						<time>2026-08-24T12:54:32Z</time>
					</trkpt>
					<trkpt lat="48.570000" lon="-0.400280">
						<ele>201</ele>
						<time>2026-08-24T12:54:43Z</time>
					</trkpt>
					<trkpt lat="48.568150" lon="-0.397080">
						<ele>198</ele>
						<time>2026-08-24T12:57:04Z</time>
					</trkpt>
					<trkpt lat="48.566470" lon="-0.399120">
						<ele>197</ele>
						<time>2026-08-24T12:58:51Z</time>
					</trkpt>
					<trkpt lat="48.565540" lon="-0.400260">
						<ele>205</ele>
						<time>2026-08-24T12:59:51Z</time>
					</trkpt>
					<trkpt lat="48.564780" lon="-0.401190">
						<ele>211</ele>
						<time>2026-08-24T13:00:40Z</time>
					</trkpt>
					<trkpt lat="48.564670" lon="-0.401330">
						<ele>212</ele>
						<time>2026-08-24T13:00:48Z</time>
					</trkpt>
					<trkpt lat="48.564720" lon="-0.401420">
						<ele>212</ele>
						<time>2026-08-24T13:00:51Z</time>
					</trkpt>
					<trkpt lat="48.565040" lon="-0.402040">
						<ele>212</ele>
						<time>2026-08-24T13:01:17Z</time>
					</trkpt>
					<trkpt lat="48.566020" lon="-0.403840">
						<ele>213</ele>
						<time>2026-08-24T13:02:35Z</time>
					</trkpt>
					<trkpt lat="48.566890" lon="-0.405420">
						<ele>212</ele>
						<time>2026-08-24T13:03:43Z</time>
					</trkpt>
					<trkpt lat="48.566980" lon="-0.405560">
						<ele>212</ele>
						<time>2026-08-24T13:03:49Z</time>
					</trkpt>
					<trkpt lat="48.567020" lon="-0.405700">
						<ele>212</ele>
						<time>2026-08-24T13:03:54Z</time>
					</trkpt>
					<trkpt lat="48.567080" lon="-0.405820">
						<ele>212</ele>
						<time>2026-08-24T13:03:59Z</time>
					</trkpt>
					<trkpt lat="48.567430" lon="-0.406430">
						<ele>210</ele>
						<time>2026-08-24T13:04:26Z</time>
					</trkpt>
					<trkpt lat="48.567110" lon="-0.407160">
						<ele>210</ele>
						<time>2026-08-24T13:04:55Z</time>
					</trkpt>
					<trkpt lat="48.566720" lon="-0.408120">
						<ele>205</ele>
						<time>2026-08-24T13:05:32Z</time>
					</trkpt>
					<trkpt lat="48.566580" lon="-0.408500">
						<ele>202</ele>
						<time>2026-08-24T13:05:47Z</time>
					</trkpt>
					<trkpt lat="48.566320" lon="-0.409160">
						<ele>198</ele>
						<time>2026-08-24T13:06:12Z</time>
					</trkpt>
					<trkpt lat="48.566290" lon="-0.409230">
						<ele>197</ele>
						<time>2026-08-24T13:06:15Z</time>
					</trkpt>
					<trkpt lat="48.566070" lon="-0.408960">
						<ele>199</ele>
						<time>2026-08-24T13:06:29Z</time>
					</trkpt>
					<trkpt lat="48.566030" lon="-0.408890">
						<ele>200</ele>
						<time>2026-08-24T13:06:32Z</time>
					</trkpt>
					<trkpt lat="48.565990" lon="-0.408760">
						<ele>201</ele>
						<time>2026-08-24T13:06:37Z</time>
					</trkpt>
					<trkpt lat="48.565790" lon="-0.408720">
						<ele>202</ele>
						<time>2026-08-24T13:06:47Z</time>
					</trkpt>
					<trkpt lat="48.565440" lon="-0.408780">
						<ele>204</ele>
						<time>2026-08-24T13:07:05Z</time>
					</trkpt>
					<trkpt lat="48.565300" lon="-0.408860">
						<ele>204</ele>
						<time>2026-08-24T13:07:12Z</time>
					</trkpt>
					<trkpt lat="48.565210" lon="-0.408940">
						<ele>205</ele>
						<time>2026-08-24T13:07:17Z</time>
					</trkpt>
					<trkpt lat="48.565010" lon="-0.409090">
						<ele>207</ele>
						<time>2026-08-24T13:07:28Z</time>
					</trkpt>
					<trkpt lat="48.564710" lon="-0.409360">
						<ele>209</ele>
						<time>2026-08-24T13:07:46Z</time>
					</trkpt>
					<trkpt lat="48.564660" lon="-0.409380">
						<ele>209</ele>
						<time>2026-08-24T13:07:48Z</time>
					</trkpt>
					<trkpt lat="48.564470" lon="-0.409460">
						<ele>211</ele>
						<time>2026-08-24T13:07:58Z</time>
					</trkpt>
					<trkpt lat="48.563910" lon="-0.409750">
						<ele>216</ele>
						<time>2026-08-24T13:08:28Z</time>
					</trkpt>
					<trkpt lat="48.563840" lon="-0.409810">
						<ele>217</ele>
						<time>2026-08-24T13:08:32Z</time>
					</trkpt>
					<trkpt lat="48.563780" lon="-0.409930">
						<ele>217</ele>
						<time>2026-08-24T13:08:37Z</time>
					</trkpt>
					<trkpt lat="48.563680" lon="-0.410420">
						<ele>217</ele>
						<time>2026-08-24T13:08:54Z</time>
					</trkpt>
					<trkpt lat="48.563670" lon="-0.410590">
						<ele>216</ele>
						<time>2026-08-24T13:09:00Z</time>
					</trkpt>
					<trkpt lat="48.563700" lon="-0.410740">
						<ele>215</ele>
						<time>2026-08-24T13:09:05Z</time>
					</trkpt>
					<trkpt lat="48.563720" lon="-0.410890">
						<ele>215</ele>
						<time>2026-08-24T13:09:10Z</time>
					</trkpt>
					<trkpt lat="48.563700" lon="-0.411100">
						<ele>215</ele>
						<time>2026-08-24T13:09:17Z</time>
					</trkpt>
					<trkpt lat="48.563550" lon="-0.411300">
						<ele>218</ele>
						<time>2026-08-24T13:09:27Z</time>
					</trkpt>
					<trkpt lat="48.563480" lon="-0.411430">
						<ele>219</ele>
						<time>2026-08-24T13:09:32Z</time>
					</trkpt>
					<trkpt lat="48.563240" lon="-0.411780">
						<ele>222</ele>
						<time>2026-08-24T13:09:49Z</time>
					</trkpt>
					<trkpt lat="48.563100" lon="-0.411930">
						<ele>223</ele>
						<time>2026-08-24T13:09:58Z</time>
					</trkpt>
					<trkpt lat="48.562920" lon="-0.412000">
						<ele>223</ele>
						<time>2026-08-24T13:10:07Z</time>
					</trkpt>
					<trkpt lat="48.562120" lon="-0.411990">
						<ele>224</ele>
						<time>2026-08-24T13:10:47Z</time>
					</trkpt>
					<trkpt lat="48.561960" lon="-0.412020">
						<ele>224</ele>
						<time>2026-08-24T13:10:55Z</time>
					</trkpt>
					<trkpt lat="48.561770" lon="-0.411930">
						<ele>225</ele>
						<time>2026-08-24T13:11:05Z</time>
					</trkpt>
					<trkpt lat="48.561670" lon="-0.411910">
						<ele>225</ele>
						<time>2026-08-24T13:11:10Z</time>
					</trkpt>
					<trkpt lat="48.561360" lon="-0.411960">
						<ele>223</ele>
						<time>2026-08-24T13:11:26Z</time>
					</trkpt>
					<trkpt lat="48.561330" lon="-0.412000">
						<ele>223</ele>
						<time>2026-08-24T13:11:28Z</time>
					</trkpt>
					<trkpt lat="48.561650" lon="-0.410610">
						<ele>226</ele>
						<time>2026-08-24T13:12:17Z</time>
					</trkpt>
					<trkpt lat="48.561560" lon="-0.410480">
						<ele>226</ele>
						<time>2026-08-24T13:12:23Z</time>
					</trkpt>
					<trkpt lat="48.561480" lon="-0.410390">
						<ele>226</ele>
						<time>2026-08-24T13:12:28Z</time>
					</trkpt>
					<trkpt lat="48.561320" lon="-0.410160">
						<ele>225</ele>
						<time>2026-08-24T13:12:39Z</time>
					</trkpt>
					<trkpt lat="48.561220" lon="-0.409970">
						<ele>225</ele>
						<time>2026-08-24T13:12:47Z</time>
					</trkpt>
					<trkpt lat="48.560980" lon="-0.409310">
						<ele>226</ele>
						<time>2026-08-24T13:13:12Z</time>
					</trkpt>
					<trkpt lat="48.560810" lon="-0.409020">
						<ele>226</ele>
						<time>2026-08-24T13:13:25Z</time>
					</trkpt>
					<trkpt lat="48.560640" lon="-0.408890">
						<ele>226</ele>
						<time>2026-08-24T13:13:34Z</time>
					</trkpt>
					<trkpt lat="48.560500" lon="-0.408830">
						<ele>226</ele>
						<time>2026-08-24T13:13:41Z</time>
					</trkpt>
					<trkpt lat="48.560400" lon="-0.408800">
						<ele>225</ele>
						<time>2026-08-24T13:13:47Z</time>
					</trkpt>
					<trkpt lat="48.560320" lon="-0.408820">
						<ele>225</ele>
						<time>2026-08-24T13:13:51Z</time>
					</trkpt>
					<trkpt lat="48.560250" lon="-0.408920">
						<ele>225</ele>
						<time>2026-08-24T13:13:55Z</time>
					</trkpt>
					<trkpt lat="48.560190" lon="-0.409230">
						<ele>224</ele>
						<time>2026-08-24T13:14:06Z</time>
					</trkpt>
					<trkpt lat="48.560180" lon="-0.409380">
						<ele>224</ele>
						<time>2026-08-24T13:14:11Z</time>
					</trkpt>
					<trkpt lat="48.560160" lon="-0.409450">
						<ele>224</ele>
						<time>2026-08-24T13:14:14Z</time>
					</trkpt>
					<trkpt lat="48.560100" lon="-0.409470">
						<ele>224</ele>
						<time>2026-08-24T13:14:17Z</time>
					</trkpt>
					<trkpt lat="48.559970" lon="-0.409480">
						<ele>223</ele>
						<time>2026-08-24T13:14:23Z</time>
					</trkpt>
					<trkpt lat="48.559910" lon="-0.409550">
						<ele>223</ele>
						<time>2026-08-24T13:14:27Z</time>
					</trkpt>
					<trkpt lat="48.559770" lon="-0.409860">
						<ele>222</ele>
						<time>2026-08-24T13:14:39Z</time>
					</trkpt>
					<trkpt lat="48.559660" lon="-0.410020">
						<ele>222</ele>
						<time>2026-08-24T13:14:47Z</time>
					</trkpt>
					<trkpt lat="48.559580" lon="-0.410150">
						<ele>221</ele>
						<time>2026-08-24T13:14:53Z</time>
					</trkpt>
					<trkpt lat="48.559380" lon="-0.410350">
						<ele>221</ele>
						<time>2026-08-24T13:15:05Z</time>
					</trkpt>
					<trkpt lat="48.559310" lon="-0.410430">
						<ele>220</ele>
						<time>2026-08-24T13:15:09Z</time>
					</trkpt>
					<trkpt lat="48.559190" lon="-0.410770">
						<ele>220</ele>
						<time>2026-08-24T13:15:22Z</time>
					</trkpt>
					<trkpt lat="48.559020" lon="-0.411160">
						<ele>219</ele>
						<time>2026-08-24T13:15:38Z</time>
					</trkpt>
					<trkpt lat="48.558970" lon="-0.411300">
						<ele>218</ele>
						<time>2026-08-24T13:15:43Z</time>
					</trkpt>
					<trkpt lat="48.558910" lon="-0.411370">
						<ele>218</ele>
						<time>2026-08-24T13:15:47Z</time>
					</trkpt>
					<trkpt lat="48.558850" lon="-0.411420">
						<ele>217</ele>
						<time>2026-08-24T13:15:50Z</time>
					</trkpt>
					<trkpt lat="48.558780" lon="-0.411430">
						<ele>216</ele>
						<time>2026-08-24T13:15:54Z</time>
					</trkpt>
					<trkpt lat="48.558500" lon="-0.411350">
						<ele>214</ele>
						<time>2026-08-24T13:16:08Z</time>
					</trkpt>
					<trkpt lat="48.558350" lon="-0.411400">
						<ele>212</ele>
						<time>2026-08-24T13:16:16Z</time>
					</trkpt>
					<trkpt lat="48.558080" lon="-0.411520">
						<ele>208</ele>
						<time>2026-08-24T13:16:30Z</time>
					</trkpt>
					<trkpt lat="48.558070" lon="-0.411520">
						<ele>208</ele>
						<time>2026-08-24T13:16:30Z</time>
					</trkpt>
					<trkpt lat="48.558000" lon="-0.411480">
						<ele>207</ele>
						<time>2026-08-24T13:16:34Z</time>
					</trkpt>
					<trkpt lat="48.557860" lon="-0.412140">
						<ele>201</ele>
						<time>2026-08-24T13:16:57Z</time>
					</trkpt>
					<trkpt lat="48.557860" lon="-0.412140">
						<ele>201</ele>
						<time>2026-08-24T13:16:57Z</time>
					</trkpt>
					<trkpt lat="48.557760" lon="-0.412570">
						<ele>197</ele>
						<time>2026-08-24T13:17:12Z</time>
					</trkpt>
					<trkpt lat="48.557360" lon="-0.412200">
						<ele>195</ele>
						<time>2026-08-24T13:17:35Z</time>
					</trkpt>
					<trkpt lat="48.557320" lon="-0.412180">
						<ele>195</ele>
						<time>2026-08-24T13:17:37Z</time>
					</trkpt>
					<trkpt lat="48.557250" lon="-0.412190">
						<ele>195</ele>
						<time>2026-08-24T13:17:41Z</time>
					</trkpt>
					<trkpt lat="48.557170" lon="-0.412210">
						<ele>195</ele>
						<time>2026-08-24T13:17:45Z</time>
					</trkpt>
					<trkpt lat="48.557090" lon="-0.412220">
						<ele>195</ele>
						<time>2026-08-24T13:17:49Z</time>
					</trkpt>
					<trkpt lat="48.556950" lon="-0.412170">
						<ele>194</ele>
						<time>2026-08-24T13:17:56Z</time>
					</trkpt>
					<trkpt lat="48.557030" lon="-0.412660">
						<ele>193</ele>
						<time>2026-08-24T13:18:13Z</time>
					</trkpt>
					<trkpt lat="48.557040" lon="-0.412660">
						<ele>193</ele>
						<time>2026-08-24T13:18:13Z</time>
					</trkpt>
					<trkpt lat="48.556900" lon="-0.412260">
						<ele>194</ele>
						<time>2026-08-24T13:18:28Z</time>
					</trkpt>
					<trkpt lat="48.556260" lon="-0.411320">
						<ele>197</ele>
						<time>2026-08-24T13:19:13Z</time>
					</trkpt>
					<trkpt lat="48.556260" lon="-0.411320">
						<ele>197</ele>
						<time>2026-08-24T13:19:13Z</time>
					</trkpt>
					<trkpt lat="48.556210" lon="-0.411390">
						<ele>197</ele>
						<time>2026-08-24T13:19:17Z</time>
					</trkpt>
					<trkpt lat="48.555830" lon="-0.411840">
						<ele>201</ele>
						<time>2026-08-24T13:19:41Z</time>
					</trkpt>
					<trkpt lat="48.556270" lon="-0.412700">
						<ele>198</ele>
						<time>2026-08-24T13:20:17Z</time>
					</trkpt>
					<trkpt lat="48.556460" lon="-0.413110">
						<ele>197</ele>
						<time>2026-08-24T13:20:33Z</time>
					</trkpt>
					<trkpt lat="48.556570" lon="-0.413390">
						<ele>195</ele>
						<time>2026-08-24T13:20:44Z</time>
					</trkpt>
					<trkpt lat="48.556600" lon="-0.413470">
						<ele>195</ele>
						<time>2026-08-24T13:20:47Z</time>
					</trkpt>
					<trkpt lat="48.556620" lon="-0.413560">
						<ele>195</ele>
						<time>2026-08-24T13:20:50Z</time>
					</trkpt>
					<trkpt lat="48.556650" lon="-0.413770">
						<ele>194</ele>
						<time>2026-08-24T13:20:57Z</time>
					</trkpt>
					<trkpt lat="48.556650" lon="-0.413770">
						<ele>194</ele>
						<time>2026-08-24T13:20:57Z</time>
					</trkpt>
					<trkpt lat="48.556020" lon="-0.413890">
						<ele>203</ele>
						<time>2026-08-24T13:21:29Z</time>
					</trkpt>
					<trkpt lat="48.556770" lon="-0.415390">
						<ele>193</ele>
						<time>2026-08-24T13:22:31Z</time>
					</trkpt>
					<trkpt lat="48.556880" lon="-0.415650">
						<ele>190</ele>
						<time>2026-08-24T13:22:42Z</time>
					</trkpt>
					<trkpt lat="48.556910" lon="-0.415760">
						<ele>189</ele>
						<time>2026-08-24T13:22:46Z</time>
					</trkpt>
					<trkpt lat="48.556960" lon="-0.415890">
						<ele>188</ele>
						<time>2026-08-24T13:22:51Z</time>
					</trkpt>
					<trkpt lat="48.556900" lon="-0.416100">
						<ele>188</ele>
						<time>2026-08-24T13:22:58Z</time>
					</trkpt>
					<trkpt lat="48.556860" lon="-0.416260">
						<ele>188</ele>
						<time>2026-08-24T13:23:04Z</time>
					</trkpt>
					<trkpt lat="48.556840" lon="-0.416490">
						<ele>187</ele>
						<time>2026-08-24T13:23:11Z</time>
					</trkpt>
					<trkpt lat="48.556830" lon="-0.416620">
						<ele>187</ele>
						<time>2026-08-24T13:23:16Z</time>
					</trkpt>
					<trkpt lat="48.556840" lon="-0.416730">
						<ele>186</ele>
						<time>2026-08-24T13:23:20Z</time>
					</trkpt>
					<trkpt lat="48.556790" lon="-0.416740">
						<ele>187</ele>
						<time>2026-08-24T13:23:22Z</time>
					</trkpt>
					<trkpt lat="48.556790" lon="-0.416770">
						<ele>187</ele>
						<time>2026-08-24T13:23:23Z</time>
					</trkpt>
					<trkpt lat="48.556780" lon="-0.416780">
						<ele>187</ele>
						<time>2026-08-24T13:23:24Z</time>
					</trkpt>
					<trkpt lat="48.556780" lon="-0.416780">
						<ele>187</ele>
						<time>2026-08-24T13:23:24Z</time>
					</trkpt>
					<trkpt lat="48.556760" lon="-0.416790">
						<ele>187</ele>
						<time>2026-08-24T13:23:25Z</time>
					</trkpt>
					<trkpt lat="48.556730" lon="-0.416740">
						<ele>187</ele>
						<time>2026-08-24T13:23:27Z</time>
					</trkpt>
					<trkpt lat="48.556720" lon="-0.416740">
						<ele>187</ele>
						<time>2026-08-24T13:23:27Z</time>
					</trkpt>
					<trkpt lat="48.556500" lon="-0.416740">
						<ele>190</ele>
						<time>2026-08-24T13:23:38Z</time>
					</trkpt>
					<trkpt lat="48.556440" lon="-0.416720">
						<ele>191</ele>
						<time>2026-08-24T13:23:41Z</time>
					</trkpt>
					<trkpt lat="48.556320" lon="-0.416640">
						<ele>194</ele>
						<time>2026-08-24T13:23:48Z</time>
					</trkpt>
					<trkpt lat="48.556190" lon="-0.416650">
						<ele>196</ele>
						<time>2026-08-24T13:23:55Z</time>
					</trkpt>
					<trkpt lat="48.556100" lon="-0.416500">
						<ele>198</ele>
						<time>2026-08-24T13:24:01Z</time>
					</trkpt>
					<trkpt lat="48.555860" lon="-0.416170">
						<ele>204</ele>
						<time>2026-08-24T13:24:18Z</time>
					</trkpt>
					<trkpt lat="48.555480" lon="-0.415580">
						<ele>205</ele>
						<time>2026-08-24T13:24:45Z</time>
					</trkpt>
					<trkpt lat="48.555440" lon="-0.415550">
						<ele>205</ele>
						<time>2026-08-24T13:24:47Z</time>
					</trkpt>
					<trkpt lat="48.555350" lon="-0.415650">
						<ele>204</ele>
						<time>2026-08-24T13:24:53Z</time>
					</trkpt>
					<trkpt lat="48.555270" lon="-0.415670">
						<ele>204</ele>
						<time>2026-08-24T13:24:57Z</time>
					</trkpt>
					<trkpt lat="48.555120" lon="-0.415640">
						<ele>204</ele>
						<time>2026-08-24T13:25:04Z</time>
					</trkpt>
					<trkpt lat="48.554980" lon="-0.415590">
						<ele>203</ele>
						<time>2026-08-24T13:25:11Z</time>
					</trkpt>
					<trkpt lat="48.555060" lon="-0.415940">
						<ele>200</ele>
						<time>2026-08-24T13:25:24Z</time>
					</trkpt>
					<trkpt lat="48.555060" lon="-0.416000">
						<ele>199</ele>
						<time>2026-08-24T13:25:26Z</time>
					</trkpt>
					<trkpt lat="48.555040" lon="-0.416070">
						<ele>198</ele>
						<time>2026-08-24T13:25:28Z</time>
					</trkpt>
					<trkpt lat="48.554990" lon="-0.415900">
						<ele>200</ele>
						<time>2026-08-24T13:25:34Z</time>
					</trkpt>
					<trkpt lat="48.554900" lon="-0.415750">
						<ele>200</ele>
						<time>2026-08-24T13:25:41Z</time>
					</trkpt>
					<trkpt lat="48.554770" lon="-0.415560">
						<ele>199</ele>
						<time>2026-08-24T13:25:50Z</time>
					</trkpt>
					<trkpt lat="48.554660" lon="-0.415360">
						<ele>199</ele>
						<time>2026-08-24T13:25:59Z</time>
					</trkpt>
					<trkpt lat="48.554630" lon="-0.415400">
						<ele>198</ele>
						<time>2026-08-24T13:26:01Z</time>
					</trkpt>
					<trkpt lat="48.554570" lon="-0.415300">
						<ele>198</ele>
						<time>2026-08-24T13:26:05Z</time>
					</trkpt>
					<trkpt lat="48.554550" lon="-0.415220">
						<ele>199</ele>
						<time>2026-08-24T13:26:08Z</time>
					</trkpt>
					<trkpt lat="48.554520" lon="-0.415150">
						<ele>199</ele>
						<time>2026-08-24T13:26:11Z</time>
					</trkpt>
					<trkpt lat="48.554480" lon="-0.415100">
						<ele>199</ele>
						<time>2026-08-24T13:26:13Z</time>
					</trkpt>
					<trkpt lat="48.554440" lon="-0.415060">
						<ele>199</ele>
						<time>2026-08-24T13:26:16Z</time>
					</trkpt>
					<trkpt lat="48.554280" lon="-0.414990">
						<ele>197</ele>
						<time>2026-08-24T13:26:24Z</time>
					</trkpt>
					<trkpt lat="48.554130" lon="-0.414650">
						<ele>202</ele>
						<time>2026-08-24T13:26:38Z</time>
					</trkpt>
					<trkpt lat="48.554000" lon="-0.414590">
						<ele>202</ele>
						<time>2026-08-24T13:26:44Z</time>
					</trkpt>
					<trkpt lat="48.553960" lon="-0.414600">
						<ele>202</ele>
						<time>2026-08-24T13:26:47Z</time>
					</trkpt>
					<trkpt lat="48.553930" lon="-0.414600">
						<ele>201</ele>
						<time>2026-08-24T13:26:48Z</time>
					</trkpt>
					<trkpt lat="48.553870" lon="-0.414570">
						<ele>201</ele>
						<time>2026-08-24T13:26:51Z</time>
					</trkpt>
					<trkpt lat="48.553730" lon="-0.414480">
						<ele>202</ele>
						<time>2026-08-24T13:26:59Z</time>
					</trkpt>
					<trkpt lat="48.553690" lon="-0.414450">
						<ele>202</ele>
						<time>2026-08-24T13:27:01Z</time>
					</trkpt>
					<trkpt lat="48.553670" lon="-0.414420">
						<ele>203</ele>
						<time>2026-08-24T13:27:02Z</time>
					</trkpt>
					<trkpt lat="48.553570" lon="-0.414170">
						<ele>208</ele>
						<time>2026-08-24T13:27:12Z</time>
					</trkpt>
					<trkpt lat="48.553530" lon="-0.414110">
						<ele>208</ele>
						<time>2026-08-24T13:27:15Z</time>
					</trkpt>
					<trkpt lat="48.553460" lon="-0.414040">
						<ele>209</ele>
						<time>2026-08-24T13:27:19Z</time>
					</trkpt>
					<trkpt lat="48.553360" lon="-0.414010">
						<ele>209</ele>
						<time>2026-08-24T13:27:24Z</time>
					</trkpt>
					<trkpt lat="48.553110" lon="-0.413870">
						<ele>211</ele>
						<time>2026-08-24T13:27:38Z</time>
					</trkpt>
					<trkpt lat="48.553020" lon="-0.413960">
						<ele>210</ele>
						<time>2026-08-24T13:27:43Z</time>
					</trkpt>
					<trkpt lat="48.553010" lon="-0.414050">
						<ele>208</ele>
						<time>2026-08-24T13:27:46Z</time>
					</trkpt>
					<trkpt lat="48.553050" lon="-0.414200">
						<ele>206</ele>
						<time>2026-08-24T13:27:51Z</time>
					</trkpt>
					<trkpt lat="48.553070" lon="-0.414290">
						<ele>204</ele>
						<time>2026-08-24T13:27:55Z</time>
					</trkpt>
					<trkpt lat="48.553000" lon="-0.414530">
						<ele>198</ele>
						<time>2026-08-24T13:28:03Z</time>
					</trkpt>
					<trkpt lat="48.553000" lon="-0.414580">
						<ele>197</ele>
						<time>2026-08-24T13:28:05Z</time>
					</trkpt>
					<trkpt lat="48.553070" lon="-0.414670">
						<ele>194</ele>
						<time>2026-08-24T13:28:09Z</time>
					</trkpt>
					<trkpt lat="48.553060" lon="-0.414720">
						<ele>193</ele>
						<time>2026-08-24T13:28:11Z</time>
					</trkpt>
					<trkpt lat="48.552890" lon="-0.414890">
						<ele>190</ele>
						<time>2026-08-24T13:28:21Z</time>
					</trkpt>
					<trkpt lat="48.552920" lon="-0.414950">
						<ele>188</ele>
						<time>2026-08-24T13:28:24Z</time>
					</trkpt>
					<trkpt lat="48.552900" lon="-0.415090">
						<ele>186</ele>
						<time>2026-08-24T13:28:29Z</time>
					</trkpt>
					<trkpt lat="48.553320" lon="-0.415200">
						<ele>184</ele>
						<time>2026-08-24T13:28:50Z</time>
					</trkpt>
					<trkpt lat="48.553120" lon="-0.415680">
						<ele>181</ele>
						<time>2026-08-24T13:29:09Z</time>
					</trkpt>
					<trkpt lat="48.553100" lon="-0.415970">
						<ele>181</ele>
						<time>2026-08-24T13:29:18Z</time>
					</trkpt>
					<trkpt lat="48.553140" lon="-0.416240">
						<ele>185</ele>
						<time>2026-08-24T13:29:28Z</time>
					</trkpt>
					<trkpt lat="48.553140" lon="-0.416240">
						<ele>185</ele>
						<time>2026-08-24T13:29:28Z</time>
					</trkpt>
					<trkpt lat="48.552940" lon="-0.416230">
						<ele>182</ele>
						<time>2026-08-24T13:29:38Z</time>
					</trkpt>
					<trkpt lat="48.552900" lon="-0.416240">
						<ele>181</ele>
						<time>2026-08-24T13:29:40Z</time>
					</trkpt>
					<trkpt lat="48.552870" lon="-0.416280">
						<ele>181</ele>
						<time>2026-08-24T13:29:42Z</time>
					</trkpt>
					<trkpt lat="48.552890" lon="-0.416310">
						<ele>182</ele>
						<time>2026-08-24T13:29:43Z</time>
					</trkpt>
					<trkpt lat="48.552910" lon="-0.416320">
						<ele>182</ele>
						<time>2026-08-24T13:29:44Z</time>
					</trkpt>
					<trkpt lat="48.553000" lon="-0.416320">
						<ele>183</ele>
						<time>2026-08-24T13:29:49Z</time>
					</trkpt>
					<trkpt lat="48.553020" lon="-0.416350">
						<ele>184</ele>
						<time>2026-08-24T13:29:50Z</time>
					</trkpt>
					<trkpt lat="48.553030" lon="-0.416390">
						<ele>184</ele>
						<time>2026-08-24T13:29:51Z</time>
					</trkpt>
					<trkpt lat="48.553010" lon="-0.416450">
						<ele>185</ele>
						<time>2026-08-24T13:29:54Z</time>
					</trkpt>
					<trkpt lat="48.552970" lon="-0.416550">
						<ele>185</ele>
						<time>2026-08-24T13:29:58Z</time>
					</trkpt>
					<trkpt lat="48.552960" lon="-0.416640">
						<ele>185</ele>
						<time>2026-08-24T13:30:01Z</time>
					</trkpt>
					<trkpt lat="48.552850" lon="-0.417050">
						<ele>190</ele>
						<time>2026-08-24T13:30:15Z</time>
					</trkpt>
					<trkpt lat="48.552780" lon="-0.417250">
						<ele>192</ele>
						<time>2026-08-24T13:30:23Z</time>
					</trkpt>
					<trkpt lat="48.552630" lon="-0.417490">
						<ele>192</ele>
						<time>2026-08-24T13:30:34Z</time>
					</trkpt>
					<trkpt lat="48.552620" lon="-0.417610">
						<ele>193</ele>
						<time>2026-08-24T13:30:38Z</time>
					</trkpt>
					<trkpt lat="48.552530" lon="-0.418320">
						<ele>199</ele>
						<time>2026-08-24T13:31:02Z</time>
					</trkpt>
					<trkpt lat="48.552640" lon="-0.418690">
						<ele>204</ele>
						<time>2026-08-24T13:31:15Z</time>
					</trkpt>
					<trkpt lat="48.552320" lon="-0.419330">
						<ele>199</ele>
						<time>2026-08-24T13:31:42Z</time>
					</trkpt>
					<trkpt lat="48.551970" lon="-0.419720">
						<ele>189</ele>
						<time>2026-08-24T13:32:03Z</time>
					</trkpt>
					<trkpt lat="48.551560" lon="-0.420490">
						<ele>185</ele>
						<time>2026-08-24T13:32:36Z</time>
					</trkpt>
					<trkpt lat="48.551660" lon="-0.420880">
						<ele>189</ele>
						<time>2026-08-24T13:32:50Z</time>
					</trkpt>
					<trkpt lat="48.552020" lon="-0.421140">
						<ele>197</ele>
						<time>2026-08-24T13:33:10Z</time>
					</trkpt>
					<trkpt lat="48.552090" lon="-0.420840">
						<ele>197</ele>
						<time>2026-08-24T13:33:20Z</time>
					</trkpt>
					<trkpt lat="48.552260" lon="-0.420680">
						<ele>200</ele>
						<time>2026-08-24T13:33:30Z</time>
					</trkpt>
					<trkpt lat="48.552520" lon="-0.420460">
						<ele>205</ele>
						<time>2026-08-24T13:33:45Z</time>
					</trkpt>
					<trkpt lat="48.552790" lon="-0.420420">
						<ele>210</ele>
						<time>2026-08-24T13:33:59Z</time>
					</trkpt>
					<trkpt lat="48.552880" lon="-0.420850">
						<ele>210</ele>
						<time>2026-08-24T13:34:14Z</time>
					</trkpt>
					<trkpt lat="48.552870" lon="-0.421240">
						<ele>210</ele>
						<time>2026-08-24T13:34:27Z</time>
					</trkpt>
					</trkseg>
				</trk>
			</gpx>